Provisional Data: Nanticoke Creek near Maine, NY


Please select a monitoring station.
Please select start date.
Please select start date.

Toggle Unit: C/F Toggle Unit: C/F
Sample Time Temperature (C) Temperature (F) Specific Conductivity (mS/cm) pH   Turbidity (NTU+) DO (mg/L)
4/29/2023 8:00:00 PM 10.01 50.018 0.115 7.42 10.92
4/29/2023 8:15:00 PM 10 50 0.115 7.41 11.21
4/29/2023 8:30:00 PM 9.99 49.982 0.115 7.4 11.23
4/29/2023 8:45:00 PM 9.97 49.946 0.115 7.39 10.93
4/29/2023 9:00:00 PM 9.96 49.928 0.115 7.38 10.7
4/29/2023 9:15:00 PM 9.95 49.91 0.115 7.38 10.52
4/29/2023 9:30:00 PM 9.95 49.91 0.116 7.37 10.41
4/29/2023 9:45:00 PM 9.94 49.892 0.116 7.37 10.14
4/29/2023 10:00:00 PM 9.93 49.874 0.116 7.36 9.84
4/29/2023 10:15:00 PM 9.92 49.856 0.116 7.35 9.82
4/29/2023 10:30:00 PM 9.9 49.82 0.116 7.35 9.36
4/29/2023 10:45:00 PM 9.88 49.784 0.116 7.34 9.61
4/29/2023 11:00:00 PM 9.86 49.748 0.116 7.33 9.47
4/29/2023 11:15:00 PM 9.83 49.694 0.116 7.33 9.52
4/29/2023 11:30:00 PM 9.81 49.658 0.116 7.33 9.2
4/29/2023 11:45:00 PM 9.79 49.622 0.116 7.33 9.01
4/30/2023 12:00:00 AM 9.77 49.586 0.116 7.32 9.08
4/30/2023 12:15:00 AM 9.75 49.55 0.116 7.31 8.94
4/30/2023 12:30:00 AM 9.73 49.514 0.115 7.31 8.97
4/30/2023 12:45:00 AM 9.71 49.478 0.115 7.3 8.79
4/30/2023 1:00:00 AM 9.7 49.46 0.115 7.3 8.61
4/30/2023 1:15:00 AM 9.68 49.424 0.115 7.3 8.57
4/30/2023 1:30:00 AM 9.67 49.406 0.115 7.3 8.25
4/30/2023 1:45:00 AM 9.66 49.388 0.115 7.3 8.31
4/30/2023 2:00:00 AM 9.65 49.37 0.115 7.29 8.05
4/30/2023 2:15:00 AM 9.63 49.334 0.115 7.29 8.16
4/30/2023 2:30:00 AM 9.62 49.316 0.116 7.29 7.9
4/30/2023 2:45:00 AM 9.61 49.298 0.116 7.28 7.74
4/30/2023 3:00:00 AM 9.59 49.262 0.116 7.29 7.81
4/30/2023 3:15:00 AM 9.58 49.244 0.116 7.28 7.91
4/30/2023 3:30:00 AM 9.56 49.208 0.116 7.28 7.66
4/30/2023 3:45:00 AM 9.55 49.19 0.117 7.28 7.58
4/30/2023 4:00:00 AM 9.53 49.154 0.117 7.33 7.72
4/30/2023 4:15:00 AM 9.52 49.136 0.116 7.31 7.61
4/30/2023 4:30:00 AM 9.5 49.1 0.116 7.3 7.53
4/30/2023 4:45:00 AM 9.48 49.064 0.116 7.3 7.35
4/30/2023 5:00:00 AM 9.47 49.046 0.116 7.3 7.38
4/30/2023 5:15:00 AM 9.45 49.01 0.116 7.3 7.44
4/30/2023 5:30:00 AM 9.43 48.974 0.115 7.3 7.32
4/30/2023 5:45:00 AM 9.42 48.956 0.115 7.29 7.32
4/30/2023 6:00:00 AM 9.4 48.92 0.115 7.29 7.05
4/30/2023 6:15:00 AM 9.39 48.902 0.115 7.29 7.02
4/30/2023 6:30:00 AM 9.38 48.884 0.114 7.29 7.57
4/30/2023 6:45:00 AM 9.37 48.866 0.114 7.29 6.8
4/30/2023 7:00:00 AM 9.35 48.83 0.114 7.29 6.88
4/30/2023 7:15:00 AM 9.34 48.812 0.113 7.29 6.62
4/30/2023 7:30:00 AM 9.34 48.812 0.113 7.29 6.62
4/30/2023 7:45:00 AM 9.33 48.794 0.113 7.29 6.52
4/30/2023 8:00:00 AM 9.33 48.794 0.113 7.3 6.52
4/30/2023 8:15:00 AM 9.33 48.794 0.112 7.3 6.47
4/30/2023 8:30:00 AM 9.35 48.83 0.112 7.31 6.48
4/30/2023 8:45:00 AM 9.36 48.848 0.112 7.32 6.51
4/30/2023 9:00:00 AM 9.38 48.884 0.112 7.33 6.32
4/30/2023 9:15:00 AM 9.4 48.92 0.112 7.33 6.33
4/30/2023 9:30:00 AM 9.41 48.938 0.111 7.34 6.22
4/30/2023 9:45:00 AM 9.42 48.956 0.112 7.35 6.25
4/30/2023 10:00:00 AM 9.43 48.974 0.112 7.35 6.22
4/30/2023 10:15:00 AM 9.45 49.01 0.112 7.36 6.2
4/30/2023 10:30:00 AM 9.46 49.028 0.112 7.37 6.42
4/30/2023 10:45:00 AM 9.48 49.064 0.112 7.37 6.62
4/30/2023 11:00:00 AM 9.5 49.1 0.113 7.37 7.08
4/30/2023 11:15:00 AM 9.51 49.118 0.114 7.38 7.72
4/30/2023 11:30:00 AM 9.52 49.136 0.114 7.38 9.04
4/30/2023 11:45:00 AM 9.54 49.172 0.113 7.38 10.65
4/30/2023 12:00:00 PM 9.56 49.208 0.113 7.38 12.56
4/30/2023 12:15:00 PM 9.6 49.28 0.114 7.38 13.65
4/30/2023 12:30:00 PM 9.63 49.334 0.114 7.39 14.09
4/30/2023 12:45:00 PM 9.65 49.37 0.114 7.39 14.26
4/30/2023 1:00:00 PM 9.68 49.424 0.114 7.39 15.3
4/30/2023 1:15:00 PM 9.7 49.46 0.115 7.4 16.2
4/30/2023 1:30:00 PM 9.72 49.496 0.116 7.4 18.04
4/30/2023 1:45:00 PM 9.73 49.514 0.117 7.39 19.84
4/30/2023 2:00:00 PM 9.75 49.55 0.119 7.4 23.52
4/30/2023 2:15:00 PM 9.76 49.568 0.119 7.37 28.3
4/30/2023 2:30:00 PM 9.78 49.604 0.119 7.36 31.24
4/30/2023 2:45:00 PM 9.81 49.658 0.117 7.35 35.77
4/30/2023 3:00:00 PM 9.85 49.73 0.116 7.36 37.27
4/30/2023 3:15:00 PM 9.88 49.784 0.115 7.33 42
4/30/2023 3:30:00 PM 9.9 49.82 0.114 7.36 46.57
4/30/2023 3:45:00 PM 9.92 49.856 0.113 7.34 52.61
4/30/2023 4:00:00 PM 9.94 49.892 0.112 7.32 59.9
4/30/2023 4:15:00 PM 9.96 49.928 0.111 7.3 67.43
4/30/2023 4:30:00 PM 9.98 49.964 0.109 7.29 75.24
4/30/2023 4:45:00 PM 10 50 0.107 7.26 86.26
4/30/2023 5:00:00 PM 10.01 50.018 0.105 7.27 93.84
4/30/2023 5:15:00 PM 10.02 50.036 0.104 7.24 100.58
4/30/2023 5:30:00 PM 10.03 50.054 0.103 7.24 110.34
4/30/2023 5:45:00 PM 10.03 50.054 0.101 7.18 119.69
4/30/2023 6:00:00 PM 10.04 50.072 0.099 7.17 128.79
4/30/2023 6:15:00 PM 10.05 50.09 0.097 7.2 135.41
4/30/2023 6:30:00 PM 10.05 50.09 0.096 7.15 143.21
4/30/2023 6:45:00 PM 10.07 50.126 0.095 7.15 154.12
4/30/2023 7:00:00 PM 10.08 50.144 0.093 7.13 165.66
4/30/2023 7:15:00 PM 10.09 50.162 0.091 7.12 172.88
4/30/2023 7:30:00 PM 10.09 50.162 0.088 7.14 176.99
4/30/2023 7:45:00 PM 10.09 50.162 0.087 7.07 210.2
4/30/2023 8:00:00 PM 10.1 50.18 0.085 7.09 234.77
4/30/2023 8:15:00 PM 10.11 50.198 0.082 7.04 262.89
4/30/2023 8:30:00 PM 10.11 50.198 0.079 7.02 282.65
4/30/2023 8:45:00 PM 10.1 50.18 0.077 6.99 295.66
4/30/2023 9:00:00 PM 10.09 50.162 0.075 6.98 298.44
4/30/2023 9:15:00 PM 10.09 50.162 0.072 6.94 324.78
4/30/2023 9:30:00 PM 10.09 50.162 0.071 6.95 327.51
4/30/2023 9:45:00 PM 10.09 50.162 0.068 6.91 330.95
4/30/2023 10:00:00 PM 10.1 50.18 0.066 6.87 351.79
4/30/2023 10:15:00 PM 10.1 50.18 0.064 6.86 362.69
4/30/2023 10:30:00 PM 10.1 50.18 0.063 6.84 380.41
4/30/2023 10:45:00 PM 10.09 50.162 0.062 6.82 389.43
4/30/2023 11:00:00 PM 10.08 50.144 0.061 6.8 384
4/30/2023 11:15:00 PM 10.05 50.09 0.06 6.78 397.87
4/30/2023 11:30:00 PM 10.03 50.054 0.06 6.75 405.58
4/30/2023 11:45:00 PM 10.01 50.018 0.059 6.73 407.34
5/1/2023 12:00:00 AM 9.98 49.964 0.059 6.74 393.7
5/1/2023 12:15:00 AM 9.94 49.892 0.058 6.73 374.76
5/1/2023 12:30:00 AM 9.91 49.838 0.058 6.7 387.45
5/1/2023 12:45:00 AM 9.87 49.766 0.058 6.68 360.58
5/1/2023 1:00:00 AM 9.83 49.694 0.058 6.72 348.47
5/1/2023 1:15:00 AM 9.79 49.622 0.058 6.67 352.95
5/1/2023 1:30:00 AM 9.75 49.55 0.058 6.68 336.96
5/1/2023 1:45:00 AM 9.71 49.478 0.058 6.67 321.79
5/1/2023 2:00:00 AM 9.67 49.406 0.058 6.67 318.95
5/1/2023 2:15:00 AM 9.62 49.316 0.058 6.69 298.28
5/1/2023 2:30:00 AM 9.58 49.244 0.058 6.7 287.7
5/1/2023 2:45:00 AM 9.53 49.154 0.058 6.68 267.47
5/1/2023 3:00:00 AM 9.48 49.064 0.059 6.71 250.18
5/1/2023 3:15:00 AM 9.43 48.974 0.059 6.7 225.45
5/1/2023 3:30:00 AM 9.38 48.884 0.059 6.71 207.6
5/1/2023 3:45:00 AM 9.32 48.776 0.059 6.73 197.76
5/1/2023 4:00:00 AM 9.26 48.668 0.06 6.72 174.28
5/1/2023 4:15:00 AM 9.2 48.56 0.06 6.72 160.01
5/1/2023 4:30:00 AM 9.15 48.47 0.06 6.73 146.55
5/1/2023 4:45:00 AM 9.09 48.362 0.061 6.72 140.85
5/1/2023 5:00:00 AM 9.04 48.272 0.061 6.72 127.91
5/1/2023 5:15:00 AM 8.99 48.182 0.061 6.74 121.58
5/1/2023 5:30:00 AM 8.95 48.11 0.061 6.75 117.01
5/1/2023 5:45:00 AM 8.9 48.02 0.061 6.74 115.16
5/1/2023 6:00:00 AM 8.87 47.966 0.061 6.75 112.11
5/1/2023 6:15:00 AM 8.84 47.912 0.061 6.77 113.1
5/1/2023 6:30:00 AM 8.8 47.84 0.061 6.76 109.27
5/1/2023 6:45:00 AM 8.78 47.804 0.061 6.77 105.18
5/1/2023 7:00:00 AM 8.76 47.768 0.061 6.76 103.68
5/1/2023 7:15:00 AM 8.75 47.75 0.061 6.78 100.39
5/1/2023 7:30:00 AM 8.74 47.732 0.062 6.79 102.41
5/1/2023 7:45:00 AM 8.73 47.714 0.062 6.79 94.57
5/1/2023 8:00:00 AM 8.74 47.732 0.062 6.78 92.62
5/1/2023 8:15:00 AM 8.75 47.75 0.062 6.8 89.81
5/1/2023 8:30:00 AM 8.76 47.768 0.062 6.8 87.68
5/1/2023 8:45:00 AM 8.79 47.822 0.063 6.81 89.43
5/1/2023 9:00:00 AM 8.83 47.894 0.063 6.81 84.86
5/1/2023 9:15:00 AM 8.87 47.966 0.063 6.8 86.16
5/1/2023 9:30:00 AM 8.93 48.074 0.063 6.82 85.23
5/1/2023 9:45:00 AM 8.98 48.164 0.063 6.81 85.5
5/1/2023 10:00:00 AM 9.02 48.236 0.063 6.81 82.11
5/1/2023 10:15:00 AM 9.08 48.344 0.063 6.81 82.17
5/1/2023 10:30:00 AM 9.15 48.47 0.063 6.8 80.91
5/1/2023 10:45:00 AM 9.2 48.56 0.063 6.8 81.73
5/1/2023 11:00:00 AM 9.23 48.614 0.064 6.82 79.97
5/1/2023 11:15:00 AM 9.33 48.794 0.063 6.81 79.49
5/1/2023 11:30:00 AM 9.45 49.01 0.064 6.8 77.19
5/1/2023 11:45:00 AM 9.57 49.226 0.064 6.82 76.09
5/1/2023 12:00:00 PM 9.67 49.406 0.064 6.83 75.34
5/1/2023 12:15:00 PM 9.75 49.55 0.065 6.82 74.08
5/1/2023 12:30:00 PM 9.89 49.802 0.065 6.82 74.46
5/1/2023 12:45:00 PM 10.04 50.072 0.066 6.82 73.12
5/1/2023 1:00:00 PM 10.19 50.342 0.066 6.83 71.53
5/1/2023 1:15:00 PM 10.33 50.594 0.066 6.83 69.71
5/1/2023 1:30:00 PM 10.46 50.828 0.066 6.84 67.01
5/1/2023 1:45:00 PM 10.54 50.972 0.066 6.83 67.56
5/1/2023 2:00:00 PM 10.64 51.152 0.066 6.84 65.82
5/1/2023 2:15:00 PM 10.77 51.386 0.066 6.83 64.89
5/1/2023 2:30:00 PM 10.87 51.566 0.066 6.85 64.38
5/1/2023 2:45:00 PM 10.92 51.656 0.066 6.84 61.54
5/1/2023 3:00:00 PM 10.98 51.764 0.066 6.84 60.66
5/1/2023 3:15:00 PM 11.06 51.908 0.066 6.82 62.1
5/1/2023 3:30:00 PM 11.15 52.07 0.066 6.83 60.74
5/1/2023 3:45:00 PM 11.24 52.232 0.066 6.84 62.11
5/1/2023 4:00:00 PM 11.34 52.412 0.066 6.83 60.4
5/1/2023 4:15:00 PM 11.39 52.502 0.067 6.84 59.86
5/1/2023 4:30:00 PM 11.42 52.556 0.067 6.84 58.53
5/1/2023 4:45:00 PM 11.45 52.61 0.067 6.84 58.73
5/1/2023 5:00:00 PM 11.46 52.628 0.067 6.83 57.36
5/1/2023 5:15:00 PM 11.43 52.574 0.067 6.83 56.87
5/1/2023 5:30:00 PM 11.41 52.538 0.067 6.82 57.29
5/1/2023 5:45:00 PM 11.36 52.448 0.068 6.83 56.39
5/1/2023 6:00:00 PM 11.31 52.358 0.068 6.84 55.19
5/1/2023 6:15:00 PM 11.23 52.214 0.068 6.85 54.38
5/1/2023 6:30:00 PM 11.15 52.07 0.069 6.84 52.43
5/1/2023 6:45:00 PM 11.06 51.908 0.069 6.89 52.5
5/1/2023 7:00:00 PM 10.98 51.764 0.069 6.87 52.05
5/1/2023 7:15:00 PM 10.89 51.602 0.069 6.87 53.74
5/1/2023 7:30:00 PM 10.8 51.44 0.069 6.87 48.68
5/1/2023 7:45:00 PM 10.71 51.278 0.07 6.86 52.24
5/1/2023 8:00:00 PM 10.62 51.116 0.07 6.87 62.42
5/1/2023 8:15:00 PM 10.52 50.936 0.07 6.88 63.9
5/1/2023 8:30:00 PM 10.43 50.774 0.07 6.86 45.32
5/1/2023 8:45:00 PM 10.34 50.612 0.07 6.87 73.98
5/1/2023 9:00:00 PM 10.25 50.45 0.07 6.86 66.53
5/1/2023 9:15:00 PM 10.15 50.27 0.07 6.87 47.92
5/1/2023 9:30:00 PM 10.05 50.09 0.071 6.85 48.61
5/1/2023 9:45:00 PM 9.96 49.928 0.071 6.88 40.21
5/1/2023 10:00:00 PM 9.87 49.766 0.071 6.88 43.79
5/1/2023 10:15:00 PM 9.78 49.604 0.071 6.87 42.36
5/1/2023 10:30:00 PM 9.69 49.442 0.071 6.88 54.66
5/1/2023 10:45:00 PM 9.62 49.316 0.071 6.87 54.75
5/1/2023 11:00:00 PM 9.55 49.19 0.071 6.87 56.3
5/1/2023 11:15:00 PM 9.48 49.064 0.072 6.86 41.14
5/1/2023 11:30:00 PM 9.42 48.956 0.072 6.88 45.86
5/1/2023 11:45:00 PM 9.35 48.83 0.072 6.87 41.94
5/2/2023 12:00:00 AM 9.3 48.74 0.072 6.88 40.77
5/2/2023 12:15:00 AM 9.25 48.65 0.072 6.88 39.36
5/2/2023 12:30:00 AM 9.2 48.56 0.072 6.89 40.77
5/2/2023 12:45:00 AM 9.16 48.488 0.072 6.91 39.03
5/2/2023 1:00:00 AM 9.13 48.434 0.072 6.88 43.15
5/2/2023 1:15:00 AM 9.09 48.362 0.072 6.89 44.31
5/2/2023 1:30:00 AM 9.05 48.29 0.072 6.89 42.36
5/2/2023 1:45:00 AM 9.02 48.236 0.072 6.88 39.49
5/2/2023 2:00:00 AM 8.99 48.182 0.072 6.89 37.86
5/2/2023 2:15:00 AM 8.97 48.146 0.072 6.92 39.11
5/2/2023 2:30:00 AM 8.94 48.092 0.073 6.92 36.43
5/2/2023 2:45:00 AM 8.92 48.056 0.073 6.88 37.27
5/2/2023 3:00:00 AM 8.89 48.002 0.073 6.88 36.42
5/2/2023 3:15:00 AM 8.87 47.966 0.073 6.89 36.42
5/2/2023 3:30:00 AM 8.85 47.93 0.073 6.89 37.7
5/2/2023 3:45:00 AM 8.83 47.894 0.073 6.9 37.36
5/2/2023 4:00:00 AM 8.81 47.858 0.073 6.9 35.14
5/2/2023 4:15:00 AM 8.79 47.822 0.073 6.87 35.73
5/2/2023 4:30:00 AM 8.78 47.804 0.073 6.87 35.24
5/2/2023 4:45:00 AM 8.76 47.768 0.073 6.92 36.38
5/2/2023 5:00:00 AM 8.75 47.75 0.073 6.91 37.88
5/2/2023 5:15:00 AM 8.73 47.714 0.073 6.91 36.63
5/2/2023 5:30:00 AM 8.72 47.696 0.073 6.91 35.57
5/2/2023 5:45:00 AM 8.7 47.66 0.073 6.92 34.56
5/2/2023 6:00:00 AM 8.68 47.624 0.073 6.91 36.12
5/2/2023 6:15:00 AM 8.67 47.606 0.073 6.91 36.2
5/2/2023 6:30:00 AM 8.65 47.57 0.073 6.91 43.59
5/2/2023 6:45:00 AM 8.64 47.552 0.073 6.92 35.08
5/2/2023 7:00:00 AM 8.63 47.534 0.073 6.91 154.72
5/2/2023 7:15:00 AM 8.61 47.498 0.073 6.92 33.22
5/2/2023 7:30:00 AM 8.6 47.48 0.073 6.92 32.89
5/2/2023 7:45:00 AM 8.59 47.462 0.073 6.91 33.61
5/2/2023 8:00:00 AM 8.59 47.462 0.073 6.91 32.01
5/2/2023 8:15:00 AM 8.6 47.48 0.073 6.93 34.56
5/2/2023 8:30:00 AM 8.61 47.498 0.073 6.92 33.53
5/2/2023 8:45:00 AM 8.62 47.516 0.073 6.92 38.82
5/2/2023 9:00:00 AM 8.63 47.534 0.073 6.93 34.08
5/2/2023 9:15:00 AM 8.66 47.588 0.073 6.93 33.16
5/2/2023 9:30:00 AM 8.7 47.66 0.073 6.92 33.19
5/2/2023 9:45:00 AM 8.75 47.75 0.074 6.93 33.01
5/2/2023 10:00:00 AM 8.8 47.84 0.073 6.94 31.3
5/2/2023 10:15:00 AM 8.89 48.002 0.073 6.95 32.67
5/2/2023 10:30:00 AM 8.94 48.092 0.074 6.97 32.48
5/2/2023 10:45:00 AM 9.08 48.344 0.073 6.97 30.66
5/2/2023 11:00:00 AM 9.17 48.506 0.073 6.97 31.27
5/2/2023 11:15:00 AM 9.25 48.65 0.073 6.98 30.71
5/2/2023 11:30:00 AM 9.37 48.866 0.074 6.98 30.82
5/2/2023 11:45:00 AM 9.48 49.064 0.073 6.98 33.69
5/2/2023 12:00:00 PM 9.6 49.28 0.074 6.98 33.41
5/2/2023 12:15:00 PM 9.74 49.532 0.074 6.99 33.33
5/2/2023 12:30:00 PM 9.9 49.82 0.074 6.98 33.05
5/2/2023 12:45:00 PM 10.04 50.072 0.074 6.98 29.69
5/2/2023 1:00:00 PM 10.12 50.216 0.073 6.98 28.35
5/2/2023 1:15:00 PM 10.19 50.342 0.073 6.91 30.69
5/2/2023 1:30:00 PM 10.28 50.504 0.073 6.92 31.13
5/2/2023 1:45:00 PM 10.3 50.54 0.073 6.93 31.01
5/2/2023 2:00:00 PM 10.29 50.522 0.073 6.95 30.01
5/2/2023 2:15:00 PM 10.31 50.558 0.074 6.95 29.23
5/2/2023 2:30:00 PM 10.34 50.612 0.073 6.96 29.21
5/2/2023 2:45:00 PM 10.39 50.702 0.073 6.95 31.86
5/2/2023 3:00:00 PM 10.43 50.774 0.073 6.95 48.42
5/2/2023 3:15:00 PM 10.5 50.9 0.073 6.96 35.87
5/2/2023 3:30:00 PM 10.55 50.99 0.074 6.97 31.11
5/2/2023 3:45:00 PM 10.61 51.098 0.073 6.97 31.42
5/2/2023 4:00:00 PM 10.66 51.188 0.073 6.98 35.66
5/2/2023 4:15:00 PM 10.71 51.278 0.074 6.98 42.17
5/2/2023 4:30:00 PM 10.77 51.386 0.074 6.97 38.97
5/2/2023 4:45:00 PM 10.78 51.404 0.073 6.98 46.8
5/2/2023 5:00:00 PM 10.76 51.368 0.073 6.98 46.13
5/2/2023 5:15:00 PM 10.75 51.35 0.073 6.98 42.53
5/2/2023 5:30:00 PM 10.77 51.386 0.073 6.96 26.39
5/2/2023 5:45:00 PM 10.78 51.404 0.073 6.99 27.44
5/2/2023 6:00:00 PM 10.76 51.368 0.073 6.99 28.07
5/2/2023 6:15:00 PM 10.73 51.314 0.073 6.99 28.69
5/2/2023 6:30:00 PM 10.69 51.242 0.073 6.99 31.22
5/2/2023 6:45:00 PM 10.64 51.152 0.073 6.99 27.75
5/2/2023 7:00:00 PM 10.6 51.08 0.073 6.98 28
5/2/2023 7:15:00 PM 10.55 50.99 0.073 6.99 27.09
5/2/2023 7:30:00 PM 10.49 50.882 0.073 6.99 27.73
5/2/2023 7:45:00 PM 10.42 50.756 0.073 6.99 27.4
5/2/2023 8:00:00 PM 10.35 50.63 0.073 6.98 28.34
5/2/2023 8:15:00 PM 10.27 50.486 0.073 6.98 28.44
5/2/2023 8:30:00 PM 10.2 50.36 0.074 6.98 29.41
5/2/2023 8:45:00 PM 10.13 50.234 0.074 6.98 29.13
5/2/2023 9:00:00 PM 10.07 50.126 0.074 6.97 32.21
5/2/2023 9:15:00 PM 10 50 0.074 6.97 30.39
5/2/2023 9:30:00 PM 9.93 49.874 0.074 6.97 29.17
5/2/2023 9:45:00 PM 9.87 49.766 0.074 6.97 31.79
5/2/2023 10:00:00 PM 9.81 49.658 0.074 6.97 29.42
5/2/2023 10:15:00 PM 9.75 49.55 0.074 6.96 30.06
5/2/2023 10:30:00 PM 9.69 49.442 0.074 6.97 30.86
5/2/2023 10:45:00 PM 9.63 49.334 0.074 6.97 27.68
5/2/2023 11:00:00 PM 9.58 49.244 0.074 6.97 26.76
5/2/2023 11:15:00 PM 9.52 49.136 0.075 6.97 26.05
5/2/2023 11:30:00 PM 9.47 49.046 0.074 6.97 27.25
5/2/2023 11:45:00 PM 9.41 48.938 0.075 6.97 26.53
5/3/2023 12:00:00 AM 9.37 48.866 0.074 6.97 26.35
5/3/2023 12:15:00 AM 9.32 48.776 0.075 6.97 25.39
5/3/2023 12:30:00 AM 9.27 48.686 0.075 6.97 24.81
5/3/2023 12:45:00 AM 9.22 48.596 0.075 6.97 25.02
5/3/2023 1:00:00 AM 9.18 48.524 0.074 6.97 25.63
5/3/2023 1:15:00 AM 9.14 48.452 0.075 6.97 28.03
5/3/2023 1:30:00 AM 9.1 48.38 0.075 6.97 25.54
5/3/2023 1:45:00 AM 9.06 48.308 0.075 6.97 26.34
5/3/2023 2:00:00 AM 9.03 48.254 0.075 6.97 24.79
5/3/2023 2:15:00 AM 9 48.2 0.075 6.97 24.48
5/3/2023 2:30:00 AM 8.98 48.164 0.075 6.97 23.71
5/3/2023 2:45:00 AM 8.95 48.11 0.075 6.97 24.22
5/3/2023 3:00:00 AM 8.93 48.074 0.075 6.97 23.64
5/3/2023 3:15:00 AM 8.9 48.02 0.076 6.97 24.81
5/3/2023 3:30:00 AM 8.87 47.966 0.076 6.97 25.99
5/3/2023 3:45:00 AM 8.85 47.93 0.076 6.97 23.28
5/3/2023 4:00:00 AM 8.82 47.876 0.076 6.97 22.62
5/3/2023 4:15:00 AM 8.8 47.84 0.076 6.98 22.67
5/3/2023 4:30:00 AM 8.77 47.786 0.076 6.98 22.65
5/3/2023 4:45:00 AM 8.75 47.75 0.076 6.98 20.71
5/3/2023 5:00:00 AM 8.72 47.696 0.076 6.98 22.69
5/3/2023 5:15:00 AM 8.7 47.66 0.076 6.98 23.63
5/3/2023 5:30:00 AM 8.68 47.624 0.076 6.98 23.81
5/3/2023 5:45:00 AM 8.66 47.588 0.076 6.98 23.04
5/3/2023 6:00:00 AM 8.64 47.552 0.076 6.98 22.29
5/3/2023 6:15:00 AM 8.62 47.516 0.076 6.98 23.49
5/3/2023 6:30:00 AM 8.6 47.48 0.076 6.98 23.9
5/3/2023 6:45:00 AM 8.59 47.462 0.076 6.98 22.13
5/3/2023 7:00:00 AM 8.58 47.444 0.076 6.98 24.78
5/3/2023 7:15:00 AM 8.57 47.426 0.076 6.98 23.25
5/3/2023 7:30:00 AM 8.56 47.408 0.076 6.98 22.63
5/3/2023 7:45:00 AM 8.56 47.408 0.076 6.98 22.67
5/3/2023 8:00:00 AM 8.57 47.426 0.076 6.98 22.88
5/3/2023 8:15:00 AM 8.57 47.426 0.076 6.98 23.08
5/3/2023 8:30:00 AM 8.58 47.444 0.076 6.98 22.34
5/3/2023 8:45:00 AM 8.59 47.462 0.076 6.99 21.27
5/3/2023 9:00:00 AM 8.61 47.498 0.076 6.99 22.97
5/3/2023 9:15:00 AM 8.64 47.552 0.076 6.99 21.71
5/3/2023 9:30:00 AM 8.67 47.606 0.077 7 21.79
5/3/2023 9:45:00 AM 8.71 47.678 0.077 7 20.76
5/3/2023 10:00:00 AM 8.76 47.768 0.076 7 21.26
5/3/2023 10:15:00 AM 8.8 47.84 0.076 7 21.3
5/3/2023 10:30:00 AM 8.83 47.894 0.076 7 21.17
5/3/2023 10:45:00 AM 8.86 47.948 0.076 7.01 20.72
5/3/2023 11:00:00 AM 8.91 48.038 0.077 7.01 20.21
5/3/2023 11:15:00 AM 8.99 48.182 0.077 7.01 20.21
5/3/2023 11:30:00 AM 9.06 48.308 0.077 7.01 20.59
5/3/2023 11:45:00 AM 9.15 48.47 0.077 7.01 20.58
5/3/2023 12:00:00 PM 9.29 48.722 0.077 7.01 20.19
5/3/2023 12:15:00 PM 9.34 48.812 0.077 7.02 20.72
5/3/2023 12:30:00 PM 9.45 49.01 0.077 7.02 19.74
5/3/2023 12:45:00 PM 9.52 49.136 0.077 7.02 21.64
5/3/2023 1:00:00 PM 9.57 49.226 0.077 7.02 20.27
5/3/2023 1:15:00 PM 9.61 49.298 0.077 7.02 21.33
5/3/2023 1:30:00 PM 9.7 49.46 0.077 7.03 20.37
5/3/2023 1:45:00 PM 9.88 49.784 0.077 7.03 20.01
5/3/2023 2:00:00 PM 10.07 50.126 0.077 7.04 20.25
5/3/2023 2:15:00 PM 10.15 50.27 0.078 7.04 20.71
5/3/2023 2:30:00 PM 10.34 50.612 0.077 7.04 25.6
5/3/2023 2:45:00 PM 10.48 50.864 0.078 7.05 21.48
5/3/2023 3:00:00 PM 10.6 51.08 0.077 7.05 21.55
5/3/2023 3:15:00 PM 10.73 51.314 0.078 7.05 20.52
5/3/2023 3:30:00 PM 10.9 51.62 0.078 7.05 24.57
5/3/2023 3:45:00 PM 10.95 51.71 0.078 7.05 20.96
5/3/2023 4:00:00 PM 11.02 51.836 0.078 7.06 20.93
5/3/2023 4:15:00 PM 11.18 52.124 0.078 7.06 20.87
5/3/2023 4:30:00 PM 11.29 52.322 0.079 7.06 19.77
5/3/2023 4:45:00 PM 11.26 52.268 0.079 7.06 20.09
5/3/2023 5:00:00 PM 11.19 52.142 0.079 7.05 20.17
5/3/2023 5:15:00 PM 11.12 52.016 0.079 7.05 20.39
5/3/2023 5:30:00 PM 11.04 51.872 0.079 7.06 19.69
5/3/2023 5:45:00 PM 11.01 51.818 0.079 7.06 20.49
5/3/2023 6:00:00 PM 11.02 51.836 0.079 7.06 19.59
5/3/2023 6:15:00 PM 11.06 51.908 0.079 7.05 19.76
5/3/2023 6:30:00 PM 11.09 51.962 0.08 7.05 19.67
5/3/2023 6:45:00 PM 11.1 51.98 0.08 7.05 19.36
5/3/2023 7:00:00 PM 11.07 51.926 0.08 7.05 19.65
5/3/2023 7:15:00 PM 11.03 51.854 0.081 7.05 19.53
5/3/2023 7:30:00 PM 10.99 51.782 0.081 7.05 19.47
5/3/2023 7:45:00 PM 10.95 51.71 0.081 7.05 19.04
5/3/2023 8:00:00 PM 10.9 51.62 0.081 7.05 19.73
5/3/2023 8:15:00 PM 10.85 51.53 0.081 7.05 19.47
5/3/2023 8:30:00 PM 10.8 51.44 0.081 7.04 21.03
5/3/2023 8:45:00 PM 10.76 51.368 0.081 7.04 19.78
5/3/2023 9:00:00 PM 10.72 51.296 0.082 7.04 21.68
5/3/2023 9:15:00 PM 10.68 51.224 0.081 7.04 19.89
5/3/2023 9:30:00 PM 10.62 51.116 0.081 7.03 20.23
5/3/2023 9:45:00 PM 10.56 51.008 0.082 7.03 20.3
5/3/2023 10:00:00 PM 10.49 50.882 0.082 7.04 19.82
5/3/2023 10:15:00 PM 10.43 50.774 0.082 7.03 19.99
5/3/2023 10:30:00 PM 10.36 50.648 0.082 7.04 19.93
5/3/2023 10:45:00 PM 10.29 50.522 0.082 7.04 19.58
5/3/2023 11:00:00 PM 10.21 50.378 0.082 7.04 17
5/3/2023 11:15:00 PM 10.14 50.252 0.082 7.04 19.71
5/3/2023 11:30:00 PM 10.07 50.126 0.082 7.04 21.9
5/3/2023 11:45:00 PM 9.99 49.982 0.082 7.04 19.6
5/4/2023 12:00:00 AM 9.92 49.856 0.082 7.04 19.13
5/4/2023 12:15:00 AM 9.84 49.712 0.082 7.04 19.98
5/4/2023 12:30:00 AM 9.78 49.604 0.082 7.04 19.47
5/4/2023 12:45:00 AM 9.71 49.478 0.082 7.04 16.61
5/4/2023 1:00:00 AM 9.65 49.37 0.082 7.04 18.85
5/4/2023 1:15:00 AM 9.6 49.28 0.082 7.03 19.96
5/4/2023 1:30:00 AM 9.54 49.172 0.082 7.03 20.97
5/4/2023 1:45:00 AM 9.49 49.082 0.082 7.03 19.48
5/4/2023 2:00:00 AM 9.45 49.01 0.082 7.03 19.03
5/4/2023 2:15:00 AM 9.4 48.92 0.082 7.03 19.52
5/4/2023 2:30:00 AM 9.36 48.848 0.082 7.03 18.65
5/4/2023 2:45:00 AM 9.31 48.758 0.083 7.03 17.46
5/4/2023 3:00:00 AM 9.27 48.686 0.083 7.03 18.93
5/4/2023 3:15:00 AM 9.23 48.614 0.083 7.02 19.39
5/4/2023 3:30:00 AM 9.2 48.56 0.083 7.03 19.51
5/4/2023 3:45:00 AM 9.16 48.488 0.083 7.03 18.9
5/4/2023 4:00:00 AM 9.13 48.434 0.083 7.03 20.71
5/4/2023 4:15:00 AM 9.09 48.362 0.083 7.03 18.55
5/4/2023 4:30:00 AM 9.06 48.308 0.083 7.02 18.79
5/4/2023 4:45:00 AM 9.03 48.254 0.083 7.02 18.85
5/4/2023 5:00:00 AM 9.01 48.218 0.083 7.02 18.53
5/4/2023 5:15:00 AM 8.98 48.164 0.084 7.02 18.56
5/4/2023 5:30:00 AM 8.96 48.128 0.084 7.02 18.95
5/4/2023 5:45:00 AM 8.93 48.074 0.084 7.02 18.62
5/4/2023 6:00:00 AM 8.91 48.038 0.084 7.02 18.64
5/4/2023 6:15:00 AM 8.88 47.984 0.084 7.03 18.06
5/4/2023 6:30:00 AM 8.86 47.948 0.084 7.01 18.18
5/4/2023 6:45:00 AM 8.84 47.912 0.084 7.01 18.1
5/4/2023 7:00:00 AM 8.82 47.876 0.084 7.01 18.44
5/4/2023 7:15:00 AM 8.81 47.858 0.084 7.03 18.32
5/4/2023 7:30:00 AM 8.8 47.84 0.084 7.01 17.96
5/4/2023 7:45:00 AM 8.8 47.84 0.084 7.03 18.73
5/4/2023 8:00:00 AM 8.8 47.84 0.085 7.01 18.38
5/4/2023 8:15:00 AM 8.81 47.858 0.084 7.02 17.96
5/4/2023 8:30:00 AM 8.82 47.876 0.085 7.02 17.38
5/4/2023 8:45:00 AM 8.84 47.912 0.085 7.03 16.76
5/4/2023 9:00:00 AM 8.87 47.966 0.084 7.03 16.62
5/4/2023 9:15:00 AM 8.9 48.02 0.084 7.04 16.52
5/4/2023 9:30:00 AM 8.93 48.074 0.085 7.02 16.67
5/4/2023 9:45:00 AM 8.98 48.164 0.085 7.05 16.69
5/4/2023 10:00:00 AM 9.03 48.254 0.085 7.05 18.33
5/4/2023 10:15:00 AM 9.08 48.344 0.085 7.05 16.25
5/4/2023 10:30:00 AM 9.13 48.434 0.085 7.05 16.45
5/4/2023 10:45:00 AM 9.18 48.524 0.085 7.04 15.98
5/4/2023 11:00:00 AM 9.23 48.614 0.085 7.05 15.88
5/4/2023 11:15:00 AM 9.27 48.686 0.085 7.05 15.41
5/4/2023 11:30:00 AM 9.32 48.776 0.086 7.07 15.26
5/4/2023 11:45:00 AM 9.4 48.92 0.085 7.06 15.1
5/4/2023 12:00:00 PM 9.45 49.01 0.086 7.07 14.76
5/4/2023 12:15:00 PM 9.51 49.118 0.086 7.07 14.46
5/4/2023 12:30:00 PM 9.64 49.352 0.085 7.07 14.46
5/4/2023 12:45:00 PM 9.74 49.532 0.086 7.07 14.41
5/4/2023 1:00:00 PM 9.79 49.622 0.086 7.07 14.26
5/4/2023 1:15:00 PM 9.84 49.712 0.086 7.08 14.05
5/4/2023 1:30:00 PM 9.92 49.856 0.086 7.06 13.83
5/4/2023 1:45:00 PM 9.99 49.982 0.086 7.08 14.18
5/4/2023 2:00:00 PM 10.17 50.306 0.086 7.09 14.11
5/4/2023 2:15:00 PM 10.29 50.522 0.086 7.09 13.45
5/4/2023 2:30:00 PM 10.32 50.576 0.086 7.08 13.43
5/4/2023 2:45:00 PM 10.39 50.702 0.086 7.1 13.8
5/4/2023 3:00:00 PM 10.45 50.81 0.087 7.08 13.8
5/4/2023 3:15:00 PM 10.5 50.9 0.087 7.1 13.87
5/4/2023 3:30:00 PM 10.53 50.954 0.087 7.09 14.06
5/4/2023 3:45:00 PM 10.63 51.134 0.087 7.1 14.13
5/4/2023 4:00:00 PM 10.77 51.386 0.087 7.09 13.46
5/4/2023 4:15:00 PM 10.76 51.368 0.087 7.1 14.08
5/4/2023 4:30:00 PM 10.75 51.35 0.087 7.09 13.62
5/4/2023 4:45:00 PM 10.78 51.404 0.087 7.08 14.04
5/4/2023 5:00:00 PM 10.82 51.476 0.087 7.09 13.9
5/4/2023 5:15:00 PM 10.81 51.458 0.087 7.07 13.77
5/4/2023 5:30:00 PM 10.8 51.44 0.087 7.08 14.12
5/4/2023 5:45:00 PM 10.81 51.458 0.087 7.08 14.61
5/4/2023 6:00:00 PM 10.83 51.494 0.087 7.07 13.86
5/4/2023 6:15:00 PM 10.87 51.566 0.087 7.08 14.42
5/4/2023 6:30:00 PM 10.9 51.62 0.088 7.08 13.84
5/4/2023 6:45:00 PM 10.93 51.674 0.088 7.08 14.42
5/4/2023 7:00:00 PM 10.93 51.674 0.088 7.07 13.93
5/4/2023 7:15:00 PM 10.9 51.62 0.088 7.09 14.57
5/4/2023 7:30:00 PM 10.87 51.566 0.088 7.09 14.09
5/4/2023 7:45:00 PM 10.84 51.512 0.088 7.09 14.78
5/4/2023 8:00:00 PM 10.81 51.458 0.088 7.08 14.22
5/4/2023 8:15:00 PM 10.77 51.386 0.088 7.08 14.48
5/4/2023 8:30:00 PM 10.74 51.332 0.088 7.08 14.42
5/4/2023 8:45:00 PM 10.69 51.242 0.088 7.07 14.79
5/4/2023 9:00:00 PM 10.64 51.152 0.088 7.07 15.06
5/4/2023 9:15:00 PM 10.59 51.062 0.089 7.07 15.08
5/4/2023 9:30:00 PM 10.54 50.972 0.089 7.05 14.36
5/4/2023 9:45:00 PM 10.49 50.882 0.089 7.06 14.55
5/4/2023 10:00:00 PM 10.44 50.792 0.089 7.06 14.52
5/4/2023 10:15:00 PM 10.39 50.702 0.089 7.06 14.73
5/4/2023 10:30:00 PM 10.33 50.594 0.089 7.06 14.62
5/4/2023 10:45:00 PM 10.26 50.468 0.089 7.06 15.02
5/4/2023 11:00:00 PM 10.19 50.342 0.089 7.06 15.14
5/4/2023 11:15:00 PM 10.12 50.216 0.089 7.06 15.04
5/4/2023 11:30:00 PM 10.04 50.072 0.089 7.04 15.38
5/4/2023 11:45:00 PM 9.95 49.91 0.089 7.04 15.24
5/5/2023 12:00:00 AM 9.87 49.766 0.089 7.04 14.4
5/5/2023 12:15:00 AM 9.8 49.64 0.089 7.03 14.47
5/5/2023 12:30:00 AM 9.73 49.514 0.089 7.03 14.71
5/5/2023 12:45:00 AM 9.66 49.388 0.089 7.03 14.45
5/5/2023 1:00:00 AM 9.58 49.244 0.09 7.03 15.02
5/5/2023 1:15:00 AM 9.51 49.118 0.09 7.04 15.43
5/5/2023 1:30:00 AM 9.46 49.028 0.09 7.05 15.16
5/5/2023 1:45:00 AM 9.4 48.92 0.09 7.05 15.24
5/5/2023 2:00:00 AM 9.34 48.812 0.09 7.04 15.22
5/5/2023 2:15:00 AM 9.3 48.74 0.09 7.05 15.22
5/5/2023 2:30:00 AM 9.24 48.632 0.09 7.05 14.64
5/5/2023 2:45:00 AM 9.17 48.506 0.09 7.05 14.87
5/5/2023 3:00:00 AM 9.11 48.398 0.09 7.05 14.72
5/5/2023 3:15:00 AM 9.05 48.29 0.091 7.05 14.83
5/5/2023 3:30:00 AM 9.01 48.218 0.091 7.03 14.06
5/5/2023 3:45:00 AM 8.96 48.128 0.091 7.04 14.45
5/5/2023 4:00:00 AM 8.92 48.056 0.091 7.05 14.37
5/5/2023 4:15:00 AM 8.88 47.984 0.092 7.05 14.5
5/5/2023 4:30:00 AM 8.84 47.912 0.091 7.04 14.89
5/5/2023 4:45:00 AM 8.8 47.84 0.092 7.05 14.35
5/5/2023 5:00:00 AM 8.76 47.768 0.092 7.05 14.33
5/5/2023 5:15:00 AM 8.73 47.714 0.092 7.05 14.34
5/5/2023 5:30:00 AM 8.69 47.642 0.092 7.05 14.33
5/5/2023 5:45:00 AM 8.66 47.588 0.092 7.04 13.63
5/5/2023 6:00:00 AM 8.63 47.534 0.093 7.04 13.88
5/5/2023 6:15:00 AM 8.6 47.48 0.093 7.04 14.12
5/5/2023 6:30:00 AM 8.57 47.426 0.093 7.04 13.75
5/5/2023 6:45:00 AM 8.55 47.39 0.093 7.04 13.58
5/5/2023 7:00:00 AM 8.54 47.372 0.094 7.05 14.02
5/5/2023 7:15:00 AM 8.54 47.372 0.094 7.05 13.55
5/5/2023 7:30:00 AM 8.54 47.372 0.094 7.06 13.01
5/5/2023 7:45:00 AM 8.54 47.372 0.094 7.06 12.63
5/5/2023 8:00:00 AM 8.55 47.39 0.094 7.05 12.92
5/5/2023 8:15:00 AM 8.57 47.426 0.094 7.06 12.66
5/5/2023 8:30:00 AM 8.61 47.498 0.094 7.07 12.56
5/5/2023 8:45:00 AM 8.67 47.606 0.094 7.07 12.15
5/5/2023 9:00:00 AM 8.72 47.696 0.095 7.07 12.42
5/5/2023 9:15:00 AM 8.77 47.786 0.095 7.08 12.04
5/5/2023 9:30:00 AM 8.83 47.894 0.095 7.08 11.84
5/5/2023 9:45:00 AM 8.9 48.02 0.095 7.08 11.63
5/5/2023 10:00:00 AM 8.98 48.164 0.095 7.08 11.48
5/5/2023 10:15:00 AM 9.07 48.326 0.095 7.09 11.61
5/5/2023 10:30:00 AM 9.17 48.506 0.095 7.09 11.14
5/5/2023 10:45:00 AM 9.25 48.65 0.095 7.1 11.55
5/5/2023 11:00:00 AM 9.33 48.794 0.095 7.1 11.44
5/5/2023 11:15:00 AM 9.38 48.884 0.095 7.11 11.07
5/5/2023 11:30:00 AM 9.43 48.974 0.095 7.11 11.27
5/5/2023 11:45:00 AM 9.5 49.1 0.096 7.11 10.97
5/5/2023 12:00:00 PM 9.57 49.226 0.096 7.12 10.59
5/5/2023 12:15:00 PM 9.66 49.388 0.095 7.11 10.78
5/5/2023 12:30:00 PM 9.8 49.64 0.095 7.12 10.76
5/5/2023 12:45:00 PM 9.93 49.874 0.095 7.12 10.41
5/5/2023 1:00:00 PM 10.03 50.054 0.096 7.13 10.59
5/5/2023 1:15:00 PM 10.08 50.144 0.096 7.12 10.58
5/5/2023 1:30:00 PM 10.14 50.252 0.096 7.13 10.63
5/5/2023 1:45:00 PM 10.21 50.378 0.096 7.13 10.27
5/5/2023 2:00:00 PM 10.35 50.63 0.096 7.14 10.09
5/5/2023 2:15:00 PM 10.47 50.846 0.096 7.14 10.28
5/5/2023 2:30:00 PM 10.53 50.954 0.096 7.14 10.1
5/5/2023 2:45:00 PM 10.62 51.116 0.096 7.14 10.05
5/5/2023 3:00:00 PM 10.85 51.53 0.096 7.14 9.83
5/5/2023 3:15:00 PM 11.07 51.926 0.096 7.15 9.87
5/5/2023 3:30:00 PM 11.32 52.376 0.096 7.15 9.6
5/5/2023 3:45:00 PM 11.39 52.502 0.097 7.15 9.89
5/5/2023 4:00:00 PM 11.43 52.574 0.097 7.16 9.66
5/5/2023 4:15:00 PM 11.56 52.808 0.097 7.16 9.63
5/5/2023 4:30:00 PM 11.59 52.862 0.097 7.16 9.77
5/5/2023 4:45:00 PM 11.66 52.988 0.097 7.16 9.62
5/5/2023 5:00:00 PM 11.73 53.114 0.097 7.16 9.7
5/5/2023 5:15:00 PM 11.76 53.168 0.097 7.16 9.74
5/5/2023 5:30:00 PM 11.82 53.276 0.097 7.15 9.67
5/5/2023 5:45:00 PM 11.87 53.366 0.097 7.16 9.38
5/5/2023 6:00:00 PM 11.91 53.438 0.098 7.16 9.5
5/5/2023 6:15:00 PM 11.93 53.474 0.098 7.15 9.37
5/5/2023 6:30:00 PM 11.91 53.438 0.098 7.15 9.44
5/5/2023 6:45:00 PM 11.87 53.366 0.098 7.15 9.56
5/5/2023 7:00:00 PM 11.82 53.276 0.098 7.15 9.89
5/5/2023 7:15:00 PM 11.78 53.204 0.098 7.15 9.6
5/5/2023 7:30:00 PM 11.74 53.132 0.099 7.14 9.67
5/5/2023 7:45:00 PM 11.68 53.024 0.098 7.13 9.59
5/5/2023 8:00:00 PM 11.63 52.934 0.099 7.13 9.51
5/5/2023 8:15:00 PM 11.59 52.862 0.099 7.13 9.76
5/5/2023 8:30:00 PM 11.56 52.808 0.099 7.13 9.6
5/5/2023 8:45:00 PM 11.52 52.736 0.099 7.12 10.4
5/5/2023 9:00:00 PM 11.48 52.664 0.099 7.11 11.02
5/5/2023 9:15:00 PM 11.42 52.556 0.099 7.12 11.34
5/5/2023 9:30:00 PM 11.34 52.412 0.099 7.1 11.15
5/5/2023 9:45:00 PM 11.25 52.25 0.099 7.09 10.91
5/5/2023 10:00:00 PM 11.17 52.106 0.1 7.1 11.2
5/5/2023 10:15:00 PM 11.09 51.962 0.1 7.1 11.09
5/5/2023 10:30:00 PM 11.01 51.818 0.1 7.1 11.16
5/5/2023 10:45:00 PM 10.94 51.692 0.1 7.1 11.46
5/5/2023 11:00:00 PM 10.88 51.584 0.1 7.1 11.51
5/5/2023 11:15:00 PM 10.81 51.458 0.1 7.1 11.22
5/5/2023 11:30:00 PM 10.74 51.332 0.1 7.09 11.19
5/5/2023 11:45:00 PM 10.66 51.188 0.1 7.09 11.27
5/6/2023 12:00:00 AM 10.58 51.044 0.1 7.09 11.4
5/6/2023 12:15:00 AM 10.5 50.9 0.101 7.09 11.25
5/6/2023 12:30:00 AM 10.42 50.756 0.101 7.09 32
5/6/2023 12:45:00 AM 10.34 50.612 0.101 7.09 10.63
5/6/2023 1:00:00 AM 10.25 50.45 0.101 7.09 10.76
5/6/2023 1:15:00 AM 10.16 50.288 0.101 7.09 10.48
5/6/2023 1:30:00 AM 10.07 50.126 0.101 7.09 10.83
5/6/2023 1:45:00 AM 9.98 49.964 0.101 7.09 10.81
5/6/2023 2:00:00 AM 9.89 49.802 0.101 7.09 10.8
5/6/2023 2:15:00 AM 9.8 49.64 0.101 7.08 10.66
5/6/2023 2:30:00 AM 9.71 49.478 0.101 7.09 10.66
5/6/2023 2:45:00 AM 9.63 49.334 0.101 7.08 10.68
5/6/2023 3:00:00 AM 9.54 49.172 0.102 7.08 10.68
5/6/2023 3:15:00 AM 9.46 49.028 0.102 7.1 10.18
5/6/2023 3:30:00 AM 9.37 48.866 0.102 7.09 10.31
5/6/2023 3:45:00 AM 9.29 48.722 0.102 7.08 10.29
5/6/2023 4:00:00 AM 9.2 48.56 0.102 7.09 10.28
5/6/2023 4:15:00 AM 9.11 48.398 0.103 7.08 10.3
5/6/2023 4:30:00 AM 9.03 48.254 0.103 7.08 10.18
5/6/2023 4:45:00 AM 8.94 48.092 0.103 7.09 9.9
5/6/2023 5:00:00 AM 8.86 47.948 0.103 7.09 9.86
5/6/2023 5:15:00 AM 8.78 47.804 0.103 7.09 9.69
5/6/2023 5:30:00 AM 8.71 47.678 0.103 7.09 9.91
5/6/2023 5:45:00 AM 8.63 47.534 0.104 7.07 9.61
5/6/2023 6:00:00 AM 8.56 47.408 0.104 7.07 9.68
5/6/2023 6:15:00 AM 8.49 47.282 0.104 7.08 9.42
5/6/2023 6:30:00 AM 8.43 47.174 0.104 7.08 9.44
5/6/2023 6:45:00 AM 8.38 47.084 0.104 7.08 9.3
5/6/2023 7:00:00 AM 8.33 46.994 0.104 7.08 9.31
5/6/2023 7:15:00 AM 8.29 46.922 0.104 7.08 9.25
5/6/2023 7:30:00 AM 8.25 46.85 0.104 7.09 9.27
5/6/2023 7:45:00 AM 8.23 46.814 0.104 7.09 9.1
5/6/2023 8:00:00 AM 8.22 46.796 0.105 7.1 9.19
5/6/2023 8:15:00 AM 8.22 46.796 0.105 7.11 10.01
5/6/2023 8:30:00 AM 8.22 46.796 0.104 7.11 8.78
5/6/2023 8:45:00 AM 8.24 46.832 0.105 7.12 8.64
5/6/2023 9:00:00 AM 8.29 46.922 0.105 7.12 8.35
5/6/2023 9:15:00 AM 8.36 47.048 0.105 7.12 8.23
5/6/2023 9:30:00 AM 8.45 47.21 0.105 7.13 8.3
5/6/2023 9:45:00 AM 8.55 47.39 0.105 7.13 8.26
5/6/2023 10:00:00 AM 8.68 47.624 0.105 7.14 8.23
5/6/2023 10:15:00 AM 8.83 47.894 0.105 7.14 8.12
5/6/2023 10:30:00 AM 9.01 48.218 0.106 7.15 8.1
5/6/2023 10:45:00 AM 9.23 48.614 0.105 7.15 7.86
5/6/2023 11:00:00 AM 9.41 48.938 0.106 7.16 7.48
5/6/2023 11:15:00 AM 9.52 49.136 0.106 7.16 7.66
5/6/2023 11:30:00 AM 9.75 49.55 0.106 7.17 7.55
5/6/2023 11:45:00 AM 10.04 50.072 0.106 7.17 7.79
5/6/2023 12:00:00 PM 10.29 50.522 0.107 7.18 7.79
5/6/2023 12:15:00 PM 10.5 50.9 0.107 7.18 7.66
5/6/2023 12:30:00 PM 10.79 51.422 0.106 7.18 7.51
5/6/2023 12:45:00 PM 11.09 51.962 0.106 7.19 7.56
5/6/2023 1:00:00 PM 11.39 52.502 0.107 7.19 7.23
5/6/2023 1:15:00 PM 11.63 52.934 0.107 7.19 7.3
5/6/2023 1:30:00 PM 11.76 53.168 0.117 7.2 7.14
5/6/2023 1:45:00 PM 11.98 53.564 0.112 7.19 7.22
5/6/2023 2:00:00 PM 12.07 53.726 0.107 7.19 7.21
5/6/2023 2:15:00 PM 12.37 54.266 0.107 7.19 7.07
5/6/2023 2:30:00 PM 12.57 54.626 0.107 7.2 7.26
5/6/2023 2:45:00 PM 12.76 54.968 0.107 7.23 7.04
5/6/2023 3:00:00 PM 12.96 55.328 0.108 7.21 7.02
5/6/2023 3:15:00 PM 13.06 55.508 0.108 7.21 7.18
5/6/2023 3:30:00 PM 13.4 56.12 0.108 7.2 7.17
5/6/2023 3:45:00 PM 13.72 56.696 0.107 7.2 7.09
5/6/2023 4:00:00 PM 13.87 56.966 0.108 7.2 7.05
5/6/2023 4:15:00 PM 14.06 57.308 0.107 7.2 6.93
5/6/2023 4:30:00 PM 14.17 57.506 0.108 7.2 7.16
5/6/2023 4:45:00 PM 14.29 57.722 0.108 7.21 7.09
5/6/2023 5:00:00 PM 14.39 57.902 0.108 7.2 7.04
5/6/2023 5:15:00 PM 14.42 57.956 0.108 7.2 7.19
5/6/2023 5:30:00 PM 14.41 57.938 0.108 7.2 6.96
5/6/2023 5:45:00 PM 14.39 57.902 0.108 7.19 7.03
5/6/2023 6:00:00 PM 14.37 57.866 0.108 7.18 7
5/6/2023 6:15:00 PM 14.35 57.83 0.108 7.18 7.4
5/6/2023 6:30:00 PM 14.35 57.83 0.108 7.18 7.35
5/6/2023 6:45:00 PM 14.34 57.812 0.109 7.17 7.29
5/6/2023 7:00:00 PM 14.33 57.794 0.108 7.17 7.29
5/6/2023 7:15:00 PM 14.32 57.776 0.108 7.16 7.17
5/6/2023 7:30:00 PM 14.31 57.758 0.109 7.16 7.18
5/6/2023 7:45:00 PM 14.31 57.758 0.109 7.16 7.13
5/6/2023 8:00:00 PM 14.29 57.722 0.109 7.15 7.25
5/6/2023 8:15:00 PM 14.25 57.65 0.108 7.15 7.46
5/6/2023 8:30:00 PM 14.19 57.542 0.109 7.14 7.66
5/6/2023 8:45:00 PM 14.13 57.434 0.109 7.14 7.83
5/6/2023 9:00:00 PM 14.05 57.29 0.109 7.14 7.84
5/6/2023 9:15:00 PM 13.97 57.146 0.109 7.13 8.02
5/6/2023 9:30:00 PM 13.88 56.984 0.109 7.13 8.25
5/6/2023 9:45:00 PM 13.77 56.786 0.109 7.13 8.11
5/6/2023 10:00:00 PM 13.67 56.606 0.109 7.12 8.59
5/6/2023 10:15:00 PM 13.55 56.39 0.109 7.12 8.94
5/6/2023 10:30:00 PM 13.43 56.174 0.11 7.12 10.12
5/6/2023 10:45:00 PM 13.3 55.94 0.11 7.12 10.92
5/6/2023 11:00:00 PM 13.18 55.724 0.11 7.11 10.29
5/6/2023 11:15:00 PM 13.05 55.49 0.11 7.11 11.73
5/6/2023 11:30:00 PM 12.92 55.256 0.11 7.11 9.45
5/6/2023 11:45:00 PM 12.8 55.04 0.11 7.11 31.16
5/7/2023 12:00:00 AM 12.67 54.806 0.11 7.1 12.22
5/7/2023 12:15:00 AM 12.55 54.59 0.11 7.1 7.82
5/7/2023 12:30:00 AM 12.44 54.392 0.111 7.09 8.28
5/7/2023 12:45:00 AM 12.32 54.176 0.111 7.1 8.6
5/7/2023 1:00:00 AM 12.21 53.978 0.111 7.1 10.2
5/7/2023 1:15:00 AM 12.09 53.762 0.111 7.1 8.09
5/7/2023 1:30:00 AM 11.98 53.564 0.111 7.09 8.18
5/7/2023 1:45:00 AM 11.87 53.366 0.111 7.09 8.62
5/7/2023 2:00:00 AM 11.75 53.15 0.111 7.1 8.06
5/7/2023 2:15:00 AM 11.63 52.934 0.112 7.1 7.98
5/7/2023 2:30:00 AM 11.51 52.718 0.112 7.11 8.06
5/7/2023 2:45:00 AM 11.39 52.502 0.112 7.11 8.06
5/7/2023 3:00:00 AM 11.27 52.286 0.112 7.11 8.05
5/7/2023 3:15:00 AM 11.15 52.07 0.112 7.11 7.8
5/7/2023 3:30:00 AM 11.03 51.854 0.112 7.11 7.81
5/7/2023 3:45:00 AM 10.91 51.638 0.112 7.11 7.55
5/7/2023 4:00:00 AM 10.79 51.422 0.112 7.11 8
5/7/2023 4:15:00 AM 10.67 51.206 0.112 7.11 7.8
5/7/2023 4:30:00 AM 10.55 50.99 0.112 7.12 7.97
5/7/2023 4:45:00 AM 10.44 50.792 0.112 7.12 7.97
5/7/2023 5:00:00 AM 10.32 50.576 0.112 7.12 9.16
5/7/2023 5:15:00 AM 10.21 50.378 0.113 7.12 7.89
5/7/2023 5:30:00 AM 10.09 50.162 0.113 7.1 8
5/7/2023 5:45:00 AM 9.98 49.964 0.113 7.1 8.14
5/7/2023 6:00:00 AM 9.88 49.784 0.113 7.1 7.81
5/7/2023 6:15:00 AM 9.77 49.586 0.113 7.1 8.22
5/7/2023 6:30:00 AM 9.67 49.406 0.113 7.1 8.07
5/7/2023 6:45:00 AM 9.58 49.244 0.113 7.1 8.78
5/7/2023 7:00:00 AM 9.5 49.1 0.113 7.1 8.33
5/7/2023 7:15:00 AM 9.43 48.974 0.113 7.11 8.92
5/7/2023 7:30:00 AM 9.36 48.848 0.114 7.11 8.28
5/7/2023 7:45:00 AM 9.31 48.758 0.114 7.11 8.38
5/7/2023 8:00:00 AM 9.27 48.686 0.113 7.11 8.13
5/7/2023 8:15:00 AM 9.25 48.65 0.114 7.13 7.98
5/7/2023 8:30:00 AM 9.25 48.65 0.114 7.14 7.53
5/7/2023 8:45:00 AM 9.27 48.686 0.114 7.15 7.31
5/7/2023 9:00:00 AM 9.31 48.758 0.114 7.14 6.95
5/7/2023 9:15:00 AM 9.36 48.848 0.114 7.14 7.08
5/7/2023 9:30:00 AM 9.44 48.992 0.114 7.14 6.9
5/7/2023 9:45:00 AM 9.53 49.154 0.114 7.15 6.55
5/7/2023 10:00:00 AM 9.65 49.37 0.114 7.15 6.79
5/7/2023 10:15:00 AM 9.8 49.64 0.114 7.16 6.82
5/7/2023 10:30:00 AM 9.93 49.874 0.114 7.17 6.59
5/7/2023 10:45:00 AM 10.04 50.072 0.114 7.17 6.5
5/7/2023 11:00:00 AM 10.22 50.396 0.114 7.18 6.59
5/7/2023 11:15:00 AM 10.43 50.774 0.114 7.18 6.55
5/7/2023 11:30:00 AM 10.63 51.134 0.114 7.19 6.39
5/7/2023 11:45:00 AM 10.88 51.584 0.115 7.2 6.06
5/7/2023 12:00:00 PM 11.13 52.034 0.114 7.21 6.17
5/7/2023 12:15:00 PM 11.41 52.538 0.115 7.22 6.15
5/7/2023 12:30:00 PM 11.71 53.078 0.114 7.23 6.24
5/7/2023 12:45:00 PM 12.01 53.618 0.115 7.23 6.3
5/7/2023 1:00:00 PM 12.34 54.212 0.115 7.23 6.36
5/7/2023 1:15:00 PM 12.64 54.752 0.115 7.23 6.37
5/7/2023 1:30:00 PM 12.95 55.31 0.115 7.24 6.8
5/7/2023 1:45:00 PM 13.21 55.778 0.115 7.25 6.37
5/7/2023 2:00:00 PM 13.48 56.264 0.115 7.26 6.55
5/7/2023 2:15:00 PM 13.71 56.678 0.115 7.26 6.64
5/7/2023 2:30:00 PM 13.92 57.056 0.115 7.26 6.58
5/7/2023 2:45:00 PM 14.06 57.308 0.115 7.27 6.56
5/7/2023 3:00:00 PM 14.16 57.488 0.115 7.27 6.26
5/7/2023 3:15:00 PM 14.32 57.776 0.116 7.27 6.3
5/7/2023 3:30:00 PM 14.44 57.992 0.116 7.27 6.22
5/7/2023 3:45:00 PM 14.52 58.136 0.116 7.27 6.52
5/7/2023 4:00:00 PM 14.59 58.262 0.115 7.27 6.35
5/7/2023 4:15:00 PM 14.65 58.37 0.116 7.26 6.34
5/7/2023 4:30:00 PM 14.69 58.442 0.116 7.26 6.24
5/7/2023 4:45:00 PM 14.7 58.46 0.116 7.26 6.89
5/7/2023 5:00:00 PM 14.7 58.46 0.116 7.25 6.7
5/7/2023 5:15:00 PM 14.69 58.442 0.115 7.24 6.69
5/7/2023 5:30:00 PM 14.68 58.424 0.116 7.24 6.51
5/7/2023 5:45:00 PM 14.65 58.37 0.116 7.24 6.84
5/7/2023 6:00:00 PM 14.63 58.334 0.116 7.23 6.48
5/7/2023 6:15:00 PM 14.6 58.28 0.116 7.22 6.55
5/7/2023 6:30:00 PM 14.57 58.226 0.117 7.22 6.46
5/7/2023 6:45:00 PM 14.54 58.172 0.116 7.21 6.2
5/7/2023 7:00:00 PM 14.5 58.1 0.116 7.21 6.24
5/7/2023 7:15:00 PM 14.46 58.028 0.116 7.2 6.45
5/7/2023 7:30:00 PM 14.42 57.956 0.116 7.2 6.19
5/7/2023 7:45:00 PM 14.36 57.848 0.116 7.19 6.7
5/7/2023 8:00:00 PM 14.3 57.74 0.117 7.19 6.4
5/7/2023 8:15:00 PM 14.25 57.65 0.117 7.19 6.56
5/7/2023 8:30:00 PM 14.19 57.542 0.117 7.18 6.32
5/7/2023 8:45:00 PM 14.12 57.416 0.116 7.17 6.81
5/7/2023 9:00:00 PM 14.06 57.308 0.116 7.17 14.3
5/7/2023 9:15:00 PM 14.01 57.218 0.117 7.17 6.78
5/7/2023 9:30:00 PM 13.95 57.11 0.117 7.16 7.06
5/7/2023 9:45:00 PM 13.9 57.02 0.117 7.16 7.45
5/7/2023 10:00:00 PM 13.85 56.93 0.117 7.15 8
5/7/2023 10:15:00 PM 13.8 56.84 0.117 7.15 8.78
5/7/2023 10:30:00 PM 13.76 56.768 0.117 7.15 9.41
5/7/2023 10:45:00 PM 13.73 56.714 0.117 7.13 9.92
5/7/2023 11:00:00 PM 13.69 56.642 0.117 7.13 10.76
5/7/2023 11:15:00 PM 13.65 56.57 0.117 7.13 10.5
5/7/2023 11:30:00 PM 13.62 56.516 0.118 7.14 10.87
5/7/2023 11:45:00 PM 13.58 56.444 0.118 7.13 10.02
5/8/2023 12:00:00 AM 13.55 56.39 0.118 7.13 10.42
5/8/2023 12:15:00 AM 13.52 56.336 0.118 7.13 9.58
5/8/2023 12:30:00 AM 13.49 56.282 0.118 7.13 9.71
5/8/2023 12:45:00 AM 13.46 56.228 0.118 7.13 9.14
5/8/2023 1:00:00 AM 13.43 56.174 0.118 7.13 8.81
5/8/2023 1:15:00 AM 13.39 56.102 0.118 7.13 8.39
5/8/2023 1:30:00 AM 13.35 56.03 0.118 7.13 8.33
5/8/2023 1:45:00 AM 13.32 55.976 0.119 7.13 8.5
5/8/2023 2:00:00 AM 13.27 55.886 0.119 7.13 8.13
5/8/2023 2:15:00 AM 13.24 55.832 0.12 7.13 7.9
5/8/2023 2:30:00 AM 13.19 55.742 0.12 7.14 9.46
5/8/2023 2:45:00 AM 13.15 55.67 0.12 7.14 8.28
5/8/2023 3:00:00 AM 13.11 55.598 0.12 7.14 8.04
5/8/2023 3:15:00 AM 13.06 55.508 0.12 7.14 8.09
5/8/2023 3:30:00 AM 13.01 55.418 0.12 7.14 8.1
5/8/2023 3:45:00 AM 12.96 55.328 0.12 7.14 8.09
5/8/2023 4:00:00 AM 12.91 55.238 0.121 7.14 10.76
5/8/2023 4:15:00 AM 12.86 55.148 0.121 7.15 7.85
5/8/2023 4:30:00 AM 12.81 55.058 0.121 7.16 7.92
5/8/2023 4:45:00 AM 12.75 54.95 0.121 7.15 9.19
5/8/2023 5:00:00 AM 12.69 54.842 0.121 7.14 8.06
5/8/2023 5:15:00 AM 12.63 54.734 0.121 7.15 8.35
5/8/2023 5:30:00 AM 12.56 54.608 0.121 7.15 8.03
5/8/2023 5:45:00 AM 12.48 54.464 0.121 7.16 7.79
5/8/2023 6:00:00 AM 12.4 54.32 0.121 7.16 7.34
5/8/2023 6:15:00 AM 12.33 54.194 0.122 7.15 7.44
5/8/2023 6:30:00 AM 12.26 54.068 0.121 7.14 7.29
5/8/2023 6:45:00 AM 12.18 53.924 0.121 7.15 7.14
5/8/2023 7:00:00 AM 12.12 53.816 0.121 7.15 6.89
5/8/2023 7:15:00 AM 12.07 53.726 0.121 7.15 7.36
5/8/2023 7:30:00 AM 12.03 53.654 0.121 7.16 6.73
5/8/2023 7:45:00 AM 12 53.6 0.121 7.17 6.74
5/8/2023 8:00:00 AM 11.97 53.546 0.121 7.18 6.62
5/8/2023 8:15:00 AM 11.95 53.51 0.121 7.18 6.35
5/8/2023 8:30:00 AM 11.94 53.492 0.121 7.18 6.13
5/8/2023 8:45:00 AM 11.94 53.492 0.121 7.19 6.19
5/8/2023 9:00:00 AM 11.96 53.528 0.121 7.19 5.94
5/8/2023 9:15:00 AM 12.01 53.618 0.121 7.2 5.97
5/8/2023 9:30:00 AM 12.08 53.744 0.121 7.21 5.62
5/8/2023 9:45:00 AM 12.15 53.87 0.12 7.22 5.8
5/8/2023 10:00:00 AM 12.23 54.014 0.121 7.22 5.65
5/8/2023 10:15:00 AM 12.32 54.176 0.121 7.23 5.94
5/8/2023 10:30:00 AM 12.43 54.374 0.12 7.24 6.79
5/8/2023 10:45:00 AM 12.58 54.644 0.12 7.23 5.88
5/8/2023 11:00:00 AM 12.74 54.932 0.12 7.25 5.64
5/8/2023 11:15:00 AM 12.93 55.274 0.12 7.26 5.41
5/8/2023 11:30:00 AM 13.14 55.652 0.12 7.26 5.48
5/8/2023 11:45:00 AM 13.31 55.958 0.12 7.27 5.37
5/8/2023 12:00:00 PM 13.53 56.354 0.12 7.27 5.23
5/8/2023 12:15:00 PM 13.77 56.786 0.119 7.28 5.19
5/8/2023 12:30:00 PM 13.98 57.164 0.12 7.29 5.37
5/8/2023 12:45:00 PM 14.2 57.56 0.12 7.29 5.32
5/8/2023 1:00:00 PM 14.42 57.956 0.12 7.29 5.33
5/8/2023 1:15:00 PM 14.67 58.406 0.119 7.3 5.27
5/8/2023 1:30:00 PM 14.91 58.838 0.119 7.3 5.21
5/8/2023 1:45:00 PM 15.15 59.27 0.12 7.3 5.4
5/8/2023 2:00:00 PM 15.38 59.684 0.12 7.3 5.23
5/8/2023 2:15:00 PM 15.6 60.08 0.12 7.31 5.5
5/8/2023 2:30:00 PM 15.86 60.548 0.12 7.31 5.54
5/8/2023 2:45:00 PM 16.13 61.034 0.12 7.31 5.41
5/8/2023 3:00:00 PM 16.38 61.484 0.12 7.31 5.57
5/8/2023 3:15:00 PM 16.61 61.898 0.12 7.31 5.66
5/8/2023 3:30:00 PM 16.77 62.186 0.12 7.31 5.56
5/8/2023 3:45:00 PM 16.91 62.438 0.12 7.31 5.72
5/8/2023 4:00:00 PM 17.05 62.69 0.12 7.31 5.48
5/8/2023 4:15:00 PM 17.14 62.852 0.12 7.32 5.49
5/8/2023 4:30:00 PM 17.17 62.906 0.12 7.32 5.42
5/8/2023 4:45:00 PM 17.2 62.96 0.12 7.31 5.46
5/8/2023 5:00:00 PM 17.24 63.032 0.12 7.31 5.57
5/8/2023 5:15:00 PM 17.25 63.05 0.12 7.31 5.67
5/8/2023 5:30:00 PM 17.24 63.032 0.121 7.3 5.43
5/8/2023 5:45:00 PM 17.21 62.978 0.121 7.31 5.5
5/8/2023 6:00:00 PM 17.19 62.942 0.121 7.3 5.4
5/8/2023 6:15:00 PM 17.14 62.852 0.121 7.29 5.87
5/8/2023 6:30:00 PM 17.1 62.78 0.121 7.29 6.06
5/8/2023 6:45:00 PM 17.03 62.654 0.121 7.29 5.92
5/8/2023 7:00:00 PM 16.96 62.528 0.121 7.29 6.04
5/8/2023 7:15:00 PM 16.87 62.366 0.121 7.29 6.7
5/8/2023 7:30:00 PM 16.76 62.168 0.122 7.29 5.9
5/8/2023 7:45:00 PM 16.65 61.97 0.122 7.28 5.92
5/8/2023 8:00:00 PM 16.53 61.754 0.122 7.28 5.98
5/8/2023 8:15:00 PM 16.4 61.52 0.122 7.27 6.2
5/8/2023 8:30:00 PM 16.25 61.25 0.122 7.26 6.13
5/8/2023 8:45:00 PM 16.11 60.998 0.122 7.25 6.21
5/8/2023 9:00:00 PM 15.97 60.746 0.122 7.23 6.16
5/8/2023 9:15:00 PM 15.83 60.494 0.122 7.22 8.93
5/8/2023 9:30:00 PM 15.7 60.26 0.122 7.21 6.1
5/8/2023 9:45:00 PM 15.56 60.008 0.123 7.2 6.05
5/8/2023 10:00:00 PM 15.42 59.756 0.123 7.2 6.35
5/8/2023 10:15:00 PM 15.3 59.54 0.123 7.19 6.3
5/8/2023 10:30:00 PM 15.16 59.288 0.123 7.19 6.49
5/8/2023 10:45:00 PM 15.02 59.036 0.123 7.19 6.64
5/8/2023 11:00:00 PM 14.87 58.766 0.123 7.19 6.44
5/8/2023 11:15:00 PM 14.73 58.514 0.123 7.18 6.39
5/8/2023 11:30:00 PM 14.59 58.262 0.123 7.19 6.3
5/8/2023 11:45:00 PM 14.45 58.01 0.123 7.18 6.32
5/9/2023 12:00:00 AM 14.31 57.758 0.123 7.18 6.34
5/9/2023 12:15:00 AM 14.17 57.506 0.123 7.18 6.43
5/9/2023 12:30:00 AM 14.04 57.272 0.124 7.17 6.36
5/9/2023 12:45:00 AM 13.9 57.02 0.123 7.18 6.25
5/9/2023 1:00:00 AM 13.77 56.786 0.123 7.18 6.26
5/9/2023 1:15:00 AM 13.64 56.552 0.124 7.18 6.13
5/9/2023 1:30:00 AM 13.51 56.318 0.124 7.17 6.02
5/9/2023 1:45:00 AM 13.38 56.084 0.124 7.17 6.14
5/9/2023 2:00:00 AM 13.26 55.868 0.124 7.17 6.14
5/9/2023 2:15:00 AM 13.14 55.652 0.124 7.17 6.2
5/9/2023 2:30:00 AM 13.02 55.436 0.124 7.18 6.22
5/9/2023 2:45:00 AM 12.91 55.238 0.125 7.17 6.23
5/9/2023 3:00:00 AM 12.8 55.04 0.125 7.16 6.11
5/9/2023 3:15:00 AM 12.68 54.824 0.125 7.17 6.14
5/9/2023 3:30:00 AM 12.57 54.626 0.125 7.17 6.07
5/9/2023 3:45:00 AM 12.46 54.428 0.125 7.17 6.24
5/9/2023 4:00:00 AM 12.35 54.23 0.125 7.17 6.11
5/9/2023 4:15:00 AM 12.24 54.032 0.125 7.16 6.11
5/9/2023 4:30:00 AM 12.13 53.834 0.125 7.16 6.28
5/9/2023 4:45:00 AM 12.02 53.636 0.125 7.16 6.13
5/9/2023 5:00:00 AM 11.91 53.438 0.125 7.16 6.19
5/9/2023 5:15:00 AM 11.81 53.258 0.125 7.17 6.1
5/9/2023 5:30:00 AM 11.71 53.078 0.126 7.16 6.06
5/9/2023 5:45:00 AM 11.6 52.88 0.125 7.16 6.09
5/9/2023 6:00:00 AM 11.51 52.718 0.125 7.16 6.12
5/9/2023 6:15:00 AM 11.42 52.556 0.126 7.15 6.45
5/9/2023 6:30:00 AM 11.33 52.394 0.126 7.15 6.16
5/9/2023 6:45:00 AM 11.26 52.268 0.126 7.16 6.01
5/9/2023 7:00:00 AM 11.19 52.142 0.126 7.16 6.1
5/9/2023 7:15:00 AM 11.13 52.034 0.126 7.17 5.92
5/9/2023 7:30:00 AM 11.08 51.944 0.126 7.17 5.83
5/9/2023 7:45:00 AM 11.04 51.872 0.126 7.18 5.9
5/9/2023 8:00:00 AM 11.01 51.818 0.126 7.19 5.64
5/9/2023 8:15:00 AM 11 51.8 0.127 7.19 5.72
5/9/2023 8:30:00 AM 11.01 51.818 0.126 7.2 5.55
5/9/2023 8:45:00 AM 11.02 51.836 0.126 7.21 5.52
5/9/2023 9:00:00 AM 11.06 51.908 0.126 7.22 5.4
5/9/2023 9:15:00 AM 11.11 51.998 0.126 7.23 5.31
5/9/2023 9:30:00 AM 11.19 52.142 0.127 7.23 5.23
5/9/2023 9:45:00 AM 11.29 52.322 0.126 7.24 5.23
5/9/2023 10:00:00 AM 11.4 52.52 0.126 7.25 5.13
5/9/2023 10:15:00 AM 11.54 52.772 0.126 7.26 5.12
5/9/2023 10:30:00 AM 11.68 53.024 0.127 7.26 5.06
5/9/2023 10:45:00 AM 11.84 53.312 0.127 7.27 5.11
5/9/2023 11:00:00 AM 12.01 53.618 0.127 7.27 4.98
5/9/2023 11:15:00 AM 12.19 53.942 0.127 7.29 5.02
5/9/2023 11:30:00 AM 12.4 54.32 0.127 7.29 5.01
5/9/2023 11:45:00 AM 12.58 54.644 0.127 7.3 4.96
5/9/2023 12:00:00 PM 12.79 55.022 0.127 7.3 4.85
5/9/2023 12:15:00 PM 13.03 55.454 0.127 7.31 4.94
5/9/2023 12:30:00 PM 13.26 55.868 0.127 7.32 4.81
5/9/2023 12:45:00 PM 13.47 56.246 0.127 7.33 4.8
5/9/2023 1:00:00 PM 13.7 56.66 0.127 7.34 4.86
5/9/2023 1:15:00 PM 13.93 57.074 0.127 7.34 4.72
5/9/2023 1:30:00 PM 14.18 57.524 0.127 7.35 4.69
5/9/2023 1:45:00 PM 14.4 57.92 0.127 7.35 4.72
5/9/2023 2:00:00 PM 14.63 58.334 0.127 7.36 4.63
5/9/2023 2:15:00 PM 14.81 58.658 0.127 7.36 4.7
5/9/2023 2:30:00 PM 14.99 58.982 0.127 7.36 4.69
5/9/2023 2:45:00 PM 15.18 59.324 0.127 7.37 4.63
5/9/2023 3:00:00 PM 15.37 59.666 0.127 7.38 4.58
5/9/2023 3:15:00 PM 15.53 59.954 0.126 7.38 4.67
5/9/2023 3:30:00 PM 15.67 60.206 0.126 7.39 4.72
5/9/2023 3:45:00 PM 15.79 60.422 0.125 7.39 4.82
5/9/2023 4:00:00 PM 15.91 60.638 0.125 7.39 4.73
5/9/2023 4:15:00 PM 16.03 60.854 0.125 7.39 4.86
5/9/2023 4:30:00 PM 16.11 60.998 0.125 7.39 4.8
5/9/2023 4:45:00 PM 16.17 61.106 0.125 7.39 4.78
5/9/2023 5:00:00 PM 16.21 61.178 0.125 7.4 4.77
5/9/2023 5:15:00 PM 16.23 61.214 0.125 7.4 4.85
5/9/2023 5:30:00 PM 16.24 61.232 0.125 7.39 4.87
5/9/2023 5:45:00 PM 16.22 61.196 0.125 7.39 4.88
5/9/2023 6:00:00 PM 16.19 61.142 0.125 7.38 5.02
5/9/2023 6:15:00 PM 16.15 61.07 0.125 7.38 4.78
5/9/2023 6:30:00 PM 16.08 60.944 0.125 7.37 4.99
5/9/2023 6:45:00 PM 15.99 60.782 0.125 7.37 5.02
5/9/2023 7:00:00 PM 15.89 60.602 0.125 7.36 5.01
5/9/2023 7:15:00 PM 15.79 60.422 0.125 7.35 5.12
5/9/2023 7:30:00 PM 15.67 60.206 0.126 7.34 5.13
5/9/2023 7:45:00 PM 15.57 60.026 0.127 7.34 5.22
5/9/2023 8:00:00 PM 15.44 59.792 0.127 7.32 5.54
5/9/2023 8:15:00 PM 15.3 59.54 0.126 7.32 5.43
5/9/2023 8:30:00 PM 15.18 59.324 0.126 7.3 5.37
5/9/2023 8:45:00 PM 15.04 59.072 0.126 7.29 5.47
5/9/2023 9:00:00 PM 14.9 58.82 0.127 7.28 5.84
5/9/2023 9:15:00 PM 14.76 58.568 0.127 7.28 5.73
5/9/2023 9:30:00 PM 14.62 58.316 0.127 7.27 5.93
5/9/2023 9:45:00 PM 14.49 58.082 0.127 7.27 5.7
5/9/2023 10:00:00 PM 14.35 57.83 0.127 7.26 5.56
5/9/2023 10:15:00 PM 14.21 57.578 0.127 7.25 5.64
5/9/2023 10:30:00 PM 14.07 57.326 0.127 7.25 5.67
5/9/2023 10:45:00 PM 13.93 57.074 0.127 7.25 5.81
5/9/2023 11:00:00 PM 13.79 56.822 0.127 7.25 5.74
5/9/2023 11:15:00 PM 13.65 56.57 0.128 7.24 5.78
5/9/2023 11:30:00 PM 13.5 56.3 0.128 7.24 5.84
5/9/2023 11:45:00 PM 13.35 56.03 0.127 7.23 6.03
5/10/2023 12:00:00 AM 13.21 55.778 0.127 7.23 5.92
5/10/2023 12:15:00 AM 13.07 55.526 0.128 7.23 5.83
5/10/2023 12:30:00 AM 12.92 55.256 0.128 7.23 7.78
5/10/2023 12:45:00 AM 12.79 55.022 0.128 7.22 5.99
5/10/2023 1:00:00 AM 12.64 54.752 0.128 7.22 5.93
5/10/2023 1:15:00 AM 12.49 54.482 0.128 7.22 6.21
5/10/2023 1:30:00 AM 12.36 54.248 0.128 7.22 6.37
5/10/2023 1:45:00 AM 12.21 53.978 0.128 7.22 6.12
5/10/2023 2:00:00 AM 12.09 53.762 0.128 7.22 5.91
5/10/2023 2:15:00 AM 11.96 53.528 0.128 7.22 5.91
5/10/2023 2:30:00 AM 11.83 53.294 0.128 7.22 5.63
5/10/2023 2:45:00 AM 11.7 53.06 0.129 7.22 5.65
5/10/2023 3:00:00 AM 11.59 52.862 0.129 7.21 5.7
5/10/2023 3:15:00 AM 11.46 52.628 0.129 7.2 5.77
5/10/2023 3:30:00 AM 11.35 52.43 0.129 7.2 5.86
5/10/2023 3:45:00 AM 11.23 52.214 0.129 7.19 5.72
5/10/2023 4:00:00 AM 11.13 52.034 0.129 7.2 5.8
5/10/2023 4:15:00 AM 11.01 51.818 0.13 7.19 5.86
5/10/2023 4:30:00 AM 10.91 51.638 0.13 7.19 5.82
5/10/2023 4:45:00 AM 10.8 51.44 0.13 7.19 5.75
5/10/2023 5:00:00 AM 10.7 51.26 0.13 7.19 5.7
5/10/2023 5:15:00 AM 10.6 51.08 0.13 7.19 5.92
5/10/2023 5:30:00 AM 10.49 50.882 0.13 7.18 5.87
5/10/2023 5:45:00 AM 10.4 50.72 0.13 7.18 5.78
5/10/2023 6:00:00 AM 10.29 50.522 0.13 7.19 5.77
5/10/2023 6:15:00 AM 10.2 50.36 0.13 7.19 5.86
5/10/2023 6:30:00 AM 10.12 50.216 0.13 7.19 5.73
5/10/2023 6:45:00 AM 10.04 50.072 0.131 7.2 5.82
5/10/2023 7:00:00 AM 9.96 49.928 0.131 7.2 5.92
5/10/2023 7:15:00 AM 9.9 49.82 0.131 7.21 5.82
5/10/2023 7:30:00 AM 9.85 49.73 0.131 7.2 5.6
5/10/2023 7:45:00 AM 9.81 49.658 0.131 7.21 5.68
5/10/2023 8:00:00 AM 9.78 49.604 0.131 7.22 5.67
5/10/2023 8:15:00 AM 9.76 49.568 0.131 7.23 5.49
5/10/2023 8:30:00 AM 9.77 49.586 0.132 7.24 5.54
5/10/2023 8:45:00 AM 9.8 49.64 0.131 7.25 5.33
5/10/2023 9:00:00 AM 9.84 49.712 0.131 7.26 5.24
5/10/2023 9:15:00 AM 9.91 49.838 0.132 7.27 5.11
5/10/2023 9:30:00 AM 10 50 0.132 7.28 5.11
5/10/2023 10:00:00 AM 10.18 50.324 0.133 6.98 3.64
5/10/2023 10:15:00 AM 10.33 50.594 0.133 7.08 3.6
5/10/2023 10:30:00 AM 7.1 3.54
5/10/2023 10:45:00 AM 10.69 51.242 0.133 7.13 3.55 11.18
5/10/2023 11:00:00 AM 10.9 51.62 0.133 7.13 3.51 11.2
5/10/2023 11:15:00 AM 11.11 51.998 0.134 7.13 3.48 11.21
5/10/2023 11:30:00 AM 11.34 52.412 0.134 7.14 3.44 11.22
5/10/2023 11:45:00 AM 11.58 52.844 0.134 7.15 3.45 11.22
5/10/2023 12:00:00 PM 11.82 53.276 0.134 7.15 3.47 11.23
5/10/2023 12:15:00 PM 12.08 53.744 0.134 7.16 3.41 11.22
5/10/2023 12:30:00 PM 12.35 54.23 0.134 7.17 3.45 11.22
5/10/2023 12:45:00 PM 12.6 54.68 0.134 7.19 3.47 11.21
5/10/2023 1:00:00 PM 12.88 55.184 0.134 7.2 3.45 11.19
5/10/2023 1:15:00 PM 13.16 55.688 0.134 7.2 3.41 11.16
5/10/2023 1:30:00 PM 13.46 56.228 0.134 7.22 3.34 11.13
5/10/2023 1:45:00 PM 13.74 56.732 0.134 7.23 3.34 11.1
5/10/2023 2:00:00 PM 14.03 57.254 0.134 7.24 3.33 11.06
5/10/2023 2:15:00 PM 14.3 57.74 0.134 7.24 3.32 11.02
5/10/2023 2:30:00 PM 14.59 58.262 0.135 7.25 3.28 10.97
5/10/2023 2:45:00 PM 14.85 58.73 0.135 7.26 3.29 10.93
5/10/2023 3:00:00 PM 15.09 59.162 0.135 7.27 3.21 10.88
5/10/2023 3:15:00 PM 15.31 59.558 0.135 7.27 3.29 10.83
5/10/2023 3:30:00 PM 15.53 59.954 0.135 7.28 3.27 10.77
5/10/2023 3:45:00 PM 15.71 60.278 0.135 7.28 3.27 10.73
5/10/2023 4:00:00 PM 15.89 60.602 0.135 7.28 3.23 10.67
5/10/2023 4:15:00 PM 16.04 60.872 0.135 7.28 3.36 10.61
5/10/2023 4:30:00 PM 16.18 61.124 0.135 7.28 3.24 10.56
5/10/2023 4:45:00 PM 16.29 61.322 0.135 7.28 3.39 10.51
5/10/2023 5:00:00 PM 16.38 61.484 0.135 7.28 3.38 10.45
5/10/2023 5:15:00 PM 16.43 61.574 0.135 7.29 3.34 10.4
5/10/2023 5:30:00 PM 16.46 61.628 0.136 7.28 3.34 10.35
5/10/2023 5:45:00 PM 16.48 61.664 0.135 7.28 3.33 10.29
5/10/2023 6:00:00 PM 16.49 61.682 0.135 7.27 3.31 10.23
5/10/2023 6:15:00 PM 16.49 61.682 0.135 7.26 3.33 10.17
5/10/2023 6:30:00 PM 16.47 61.646 0.135 7.25 3.26 10.12
5/10/2023 6:45:00 PM 16.44 61.592 0.135 7.25 3.36 10.07
5/10/2023 7:00:00 PM 16.41 61.538 0.135 7.24 3.36 10
5/10/2023 7:15:00 PM 16.37 61.466 0.135 7.23 3.29 9.94
5/10/2023 7:30:00 PM 16.31 61.358 0.135 7.22 3.31 9.88
5/10/2023 7:45:00 PM 16.23 61.214 0.135 7.21 3.54 9.81
5/10/2023 8:00:00 PM 16.14 61.052 0.136 7.19 3.42 9.75
5/10/2023 8:15:00 PM 16.04 60.872 0.136 7.18 3.39 9.68
5/10/2023 8:30:00 PM 15.93 60.674 0.136 7.16 3.42 9.62
5/10/2023 8:45:00 PM 15.82 60.476 0.136 7.15 3.67 9.57
5/10/2023 9:00:00 PM 15.69 60.242 0.136 7.13 3.78 9.52
5/10/2023 9:15:00 PM 15.57 60.026 0.136 7.12 3.73 9.48
5/10/2023 9:30:00 PM 15.44 59.792 0.136 7.11 3.81 9.45
5/10/2023 9:45:00 PM 15.32 59.576 0.136 7.1 4.03 9.43
5/10/2023 10:00:00 PM 15.2 59.36 0.136 7.09 3.94 9.42
5/10/2023 10:15:00 PM 15.07 59.126 0.136 7.08 3.92 9.41
5/10/2023 10:30:00 PM 14.94 58.892 0.136 7.07 3.98 9.4
5/10/2023 10:45:00 PM 14.81 58.658 0.136 7.07 4.02 9.39
5/10/2023 11:00:00 PM 14.68 58.424 0.136 7.03 4.04 9.39
5/10/2023 11:15:00 PM 14.55 58.19 0.137 7.03 4.07 9.4
5/10/2023 11:30:00 PM 14.41 57.938 0.136 7.03 4.06 9.41
5/10/2023 11:45:00 PM 14.28 57.704 0.137 7.01 4.09 9.41
5/11/2023 12:00:00 AM 14.15 57.47 0.137 7.01 4.35 9.42
5/11/2023 12:15:00 AM 14.02 57.236 0.137 7.01 4.09 9.44
5/11/2023 12:30:00 AM 13.88 56.984 0.137 7 4.03 9.45
5/11/2023 12:45:00 AM 13.75 56.75 0.137 7 4.08 9.47
5/11/2023 1:00:00 AM 13.61 56.498 0.137 6.99 4.09 9.48
5/11/2023 1:15:00 AM 13.48 56.264 0.137 6.99 4.11 9.51
5/11/2023 1:30:00 AM 13.33 55.994 0.137 6.99 4.29 9.53
5/11/2023 1:45:00 AM 13.2 55.76 0.137 6.99 4.21 9.55
5/11/2023 2:00:00 AM 13.07 55.526 0.137 6.99 4.43 9.57
5/11/2023 2:15:00 AM 12.94 55.292 0.137 6.99 4.32 9.6
5/11/2023 2:30:00 AM 12.8 55.04 0.137 6.98 4.35 9.63
5/11/2023 2:45:00 AM 12.68 54.824 0.138 6.98 4.3 9.64
5/11/2023 3:00:00 AM 12.55 54.59 0.137 6.98 4.3 9.67
5/11/2023 3:15:00 AM 12.43 54.374 0.138 6.98 4.25 9.7
5/11/2023 3:30:00 AM 12.31 54.158 0.138 6.98 4.25 9.73
5/11/2023 3:45:00 AM 12.19 53.942 0.138 6.98 4.11 9.75
5/11/2023 4:00:00 AM 12.07 53.726 0.138 6.98 4.23 9.77
5/11/2023 4:15:00 AM 11.95 53.51 0.138 6.98 4.26 9.81
5/11/2023 4:30:00 AM 11.84 53.312 0.138 6.98 4.18 9.83
5/11/2023 4:45:00 AM 11.73 53.114 0.138 6.98 4.26 9.85
5/11/2023 5:00:00 AM 11.62 52.916 0.138 6.98 4.26 9.88
5/11/2023 5:15:00 AM 11.52 52.736 0.139 6.98 4.3 9.9
5/11/2023 5:30:00 AM 11.42 52.556 0.139 6.98 4.21 9.93
5/11/2023 5:45:00 AM 11.32 52.376 0.139 6.98 4.37 9.96
5/11/2023 6:00:00 AM 11.23 52.214 0.139 6.97 4.4 9.98
5/11/2023 6:15:00 AM 11.14 52.052 0.139 6.99 4.34 10.01
5/11/2023 6:30:00 AM 11.05 51.89 0.139 6.99 4.44 10.06
5/11/2023 6:45:00 AM 10.98 51.764 0.14 7 4.49 10.11
5/11/2023 7:00:00 AM 10.91 51.638 0.139 7 4.64 10.18
5/11/2023 7:15:00 AM 10.85 51.53 0.139 7.01 4.7 10.25
5/11/2023 7:30:00 AM 10.81 51.458 0.139 7.02 4.92 10.31
5/11/2023 7:45:00 AM 10.78 51.404 0.14 7.03 5.25 10.37
5/11/2023 8:00:00 AM 10.77 51.386 0.14 7.04 5.05 10.45
5/11/2023 8:15:00 AM 10.77 51.386 0.14 7.04 4.94 10.52
5/11/2023 8:30:00 AM 10.78 51.404 0.14 7.05 4.7 10.59
5/11/2023 8:45:00 AM 10.81 51.458 0.14 7.06 4.46 10.66
5/11/2023 9:00:00 AM 10.88 51.584 0.14 7.08 4.39 10.71
5/11/2023 9:15:00 AM 10.97 51.746 0.14 7.09 4.11 10.77
5/11/2023 9:30:00 AM 11.08 51.944 0.141 7.1 3.97 10.81
5/11/2023 9:45:00 AM 11.21 52.178 0.141 7.12 3.91 10.86
5/11/2023 10:00:00 AM 11.36 52.448 0.141 7.13 3.84 10.89
5/11/2023 10:15:00 AM 11.54 52.772 0.141 7.14 3.74 10.92
5/11/2023 10:30:00 AM 11.72 53.096 0.141 7.15 3.69 10.96
5/11/2023 10:45:00 AM 11.92 53.456 0.141 7.16 3.68 10.99
5/11/2023 11:00:00 AM 12.12 53.816 0.141 7.17 3.66 11.01
5/11/2023 11:15:00 AM 12.36 54.248 0.141 7.18 3.64 11.03
5/11/2023 11:30:00 AM 12.59 54.662 0.141 7.2 3.56 11.04
5/11/2023 11:45:00 AM 12.85 55.13 0.141 7.21 3.52 11.05
5/11/2023 12:00:00 PM 13.1 55.58 0.141 7.21 3.54 11.06
5/11/2023 12:15:00 PM 13.38 56.084 0.141 7.23 3.62 11.06
5/11/2023 12:30:00 PM 13.63 56.534 0.141 7.24 3.44 11.06
5/11/2023 12:45:00 PM 13.92 57.056 0.141 7.24 3.59 11.05
5/11/2023 1:00:00 PM 14.19 57.542 0.141 7.26 3.45 11.04
5/11/2023 1:15:00 PM 14.5 58.1 0.141 7.28 3.48 11.03
5/11/2023 1:30:00 PM 14.79 58.622 0.141 7.29 3.56 11.01
5/11/2023 1:45:00 PM 15.07 59.126 0.142 7.29 3.51 10.99
5/11/2023 2:00:00 PM 15.38 59.684 0.141 7.31 3.66 10.96
5/11/2023 2:15:00 PM 15.67 60.206 0.141 7.31 3.43 10.92
5/11/2023 2:30:00 PM 15.94 60.692 0.141 7.31 3.48 10.88
5/11/2023 2:45:00 PM 16.16 61.088 0.141 7.31 3.54 10.83
5/11/2023 3:00:00 PM 16.38 61.484 0.142 7.32 3.52 10.79
5/11/2023 3:15:00 PM 16.5 61.7 0.141 7.32 3.57 10.73
5/11/2023 3:30:00 PM 16.61 61.898 0.141 7.32 3.45 10.67
5/11/2023 3:45:00 PM 16.83 62.294 0.142 7.33 3.5 10.62
5/11/2023 4:00:00 PM 17.12 62.816 0.141 7.37 3.37 10.57
5/11/2023 4:15:00 PM 17.34 63.212 0.141 7.35 3.74 10.52
5/11/2023 4:30:00 PM 17.51 63.518 0.142 7.34 3.23 10.46
5/11/2023 4:45:00 PM 17.65 63.77 0.141 7.35 3.25 10.38
5/11/2023 5:00:00 PM 17.76 63.968 0.142 7.34 3.32 10.32
5/11/2023 5:15:00 PM 17.83 64.094 0.142 7.33 3.3 10.25
5/11/2023 5:30:00 PM 17.88 64.184 0.142 7.32 3.34 10.17
5/11/2023 5:45:00 PM 17.91 64.238 0.142 7.31 3.37 10.11
5/11/2023 6:00:00 PM 17.93 64.274 0.142 7.3 3.35 10.03
5/11/2023 6:15:00 PM 17.93 64.274 0.142 7.3 3.33 9.97
5/11/2023 6:30:00 PM 17.94 64.292 0.142 7.29 3.42 9.91
5/11/2023 6:45:00 PM 17.95 64.31 0.142 7.29 3.4 9.86
5/11/2023 7:00:00 PM 17.94 64.292 0.142 7.28 3.38 9.79
5/11/2023 7:15:00 PM 17.92 64.256 0.142 7.26 3.39 9.71
5/11/2023 7:30:00 PM 17.88 64.184 0.142 7.25 3.53 9.64
5/11/2023 7:45:00 PM 17.84 64.112 0.142 7.24 3.48 9.56
5/11/2023 8:00:00 PM 17.79 64.022 0.142 7.22 3.4 9.49
5/11/2023 8:15:00 PM 17.72 63.896 0.142 7.21 3.49 9.41
5/11/2023 8:30:00 PM 17.64 63.752 0.142 7.19 3.49 9.33
5/11/2023 8:45:00 PM 17.55 63.59 0.142 7.18 3.62 9.25
5/11/2023 9:00:00 PM 17.46 63.428 0.142 7.16 3.7 9.19
5/11/2023 9:15:00 PM 17.37 63.266 0.142 7.14 3.98 9.13
5/11/2023 9:30:00 PM 17.27 63.086 0.143 7.13 4.03 9.09
5/11/2023 9:45:00 PM 17.17 62.906 0.143 7.13 3.92 9.05
5/11/2023 10:00:00 PM 17.07 62.726 0.143 7.11 3.98 9.03
5/11/2023 10:15:00 PM 16.95 62.51 0.143 7.1 3.91 9
5/11/2023 10:30:00 PM 16.84 62.312 0.143 7.1 4.08 8.98
5/11/2023 10:45:00 PM 16.72 62.096 0.143 7.09 4.12 8.97
5/11/2023 11:00:00 PM 16.59 61.862 0.143 7.09 4.34 8.96
5/11/2023 11:15:00 PM 16.46 61.628 0.143 7.08 3.97 8.96
5/11/2023 11:30:00 PM 16.34 61.412 0.143 7.06 4.15 8.96
5/11/2023 11:45:00 PM 16.22 61.196 0.143 7.06 4.11 8.96
5/12/2023 12:00:00 AM 16.09 60.962 0.143 7.05 4.03 8.96
5/12/2023 12:15:00 AM 15.96 60.728 0.143 7.04 4.03 8.98
5/12/2023 12:30:00 AM 15.83 60.494 0.143 7.03 4.02 8.99
5/12/2023 12:45:00 AM 15.69 60.242 0.143 7.03 4.05 9
5/12/2023 1:00:00 AM 15.57 60.026 0.143 7.02 4.08 9.01
5/12/2023 1:15:00 AM 15.44 59.792 0.143 7.01 4.17 9.03
5/12/2023 1:30:00 AM 15.32 59.576 0.144 7.02 4.12 9.04
5/12/2023 1:45:00 AM 15.19 59.342 0.144 7.01 4.14 9.06
5/12/2023 2:00:00 AM 15.05 59.09 0.143 7 4.21 9.08
5/12/2023 2:15:00 AM 14.92 58.856 0.144 7.01 4.15 9.1
5/12/2023 2:30:00 AM 14.79 58.622 0.144 7 4.09 9.12
5/12/2023 2:45:00 AM 14.66 58.388 0.144 7 4.37 9.15
5/12/2023 3:00:00 AM 14.55 58.19 0.144 6.99 4.28 9.17
5/12/2023 3:15:00 AM 14.44 57.992 0.144 7 4.36 9.19
5/12/2023 3:30:00 AM 14.32 57.776 0.144 6.99 4.35 9.21
5/12/2023 3:45:00 AM 14.19 57.542 0.144 7 4.27 9.24
5/12/2023 4:00:00 AM 14.08 57.344 0.144 7 4.24 9.26
5/12/2023 4:15:00 AM 13.95 57.11 0.144 6.99 4.23 9.29
5/12/2023 4:30:00 AM 13.85 56.93 0.145 7 4.27 9.32
5/12/2023 4:45:00 AM 13.74 56.732 0.144 7 4.23 9.33
5/12/2023 5:00:00 AM 13.64 56.552 0.145 7 4.29 9.35
5/12/2023 5:15:00 AM 13.53 56.354 0.145 6.99 4.34 9.38
5/12/2023 5:30:00 AM 13.43 56.174 0.145 7 4.27 9.4
5/12/2023 5:45:00 AM 13.34 56.012 0.145 6.99 4.48 9.42
5/12/2023 6:00:00 AM 13.24 55.832 0.145 6.99 4.38 9.46
5/12/2023 6:15:00 AM 13.16 55.688 0.145 6.99 4.38 9.49
5/12/2023 6:30:00 AM 13.1 55.58 0.145 7.01 4.4 9.54
5/12/2023 6:45:00 AM 13.04 55.472 0.145 7.01 4.5 9.59
5/12/2023 7:00:00 AM 12.98 55.364 0.145 7.02 4.5 9.67
5/12/2023 7:15:00 AM 12.94 55.292 0.145 7.03 4.23 9.75
5/12/2023 7:30:00 AM 12.91 55.238 0.145 7.04 4.38 9.83
5/12/2023 7:45:00 AM 12.88 55.184 0.145 7.05 4.23 9.91
5/12/2023 8:00:00 AM 12.87 55.166 0.144 7.06 4.45 9.99
5/12/2023 8:15:00 AM 12.88 55.184 0.144 7.07 4.44 10.06
5/12/2023 8:30:00 AM 12.9 55.22 0.144 7.09 4.45 10.13
5/12/2023 8:45:00 AM 12.94 55.292 0.145 7.09 4.54 10.2
5/12/2023 9:00:00 AM 13 55.4 0.144 7.11 4.42 10.27
5/12/2023 9:15:00 AM 13.07 55.526 0.145 7.12 4.43 10.32
5/12/2023 9:30:00 AM 13.19 55.742 0.145 7.14 4.23 10.39
5/12/2023 9:45:00 AM 13.33 55.994 0.145 7.15 4.15 10.43
5/12/2023 10:00:00 AM 13.49 56.282 0.145 7.16 3.98 10.49
5/12/2023 10:15:00 AM 13.65 56.57 0.145 7.17 3.95 10.54
5/12/2023 10:30:00 AM 13.84 56.912 0.145 7.18 3.9 10.58
5/12/2023 10:45:00 AM 14.01 57.218 0.145 7.2 3.93 10.62
5/12/2023 11:00:00 AM 14.19 57.542 0.145 7.22 4.05 10.65
5/12/2023 11:15:00 AM 14.42 57.956 0.145 7.23 4.04 10.69
5/12/2023 11:30:00 AM 14.66 58.388 0.145 7.24 3.93 10.72
5/12/2023 11:45:00 AM 14.9 58.82 0.145 7.25 3.83 10.74
5/12/2023 12:00:00 PM 15.14 59.252 0.145 7.27 3.76 10.76
5/12/2023 12:15:00 PM 15.37 59.666 0.145 7.28 3.81 10.77
5/12/2023 12:30:00 PM 15.56 60.008 0.145 7.29 3.79 10.79
5/12/2023 12:45:00 PM 15.78 60.404 0.145 7.31 3.84 10.8
5/12/2023 1:00:00 PM 16.03 60.854 0.145 7.32 3.83 10.81
5/12/2023 1:15:00 PM 16.27 61.286 0.146 7.34 3.85 10.81
5/12/2023 1:30:00 PM 16.56 61.808 0.145 7.36 3.72 10.81
5/12/2023 1:45:00 PM 16.78 62.204 0.146 7.37 3.79 10.81
5/12/2023 2:00:00 PM 16.93 62.474 0.146 7.38 3.71 10.78
5/12/2023 2:15:00 PM 17.02 62.636 0.146 7.38 3.62 10.75
5/12/2023 2:30:00 PM 17.13 62.834 0.146 7.39 3.58 10.73
5/12/2023 2:45:00 PM 17.21 62.978 0.146 7.4 3.49 10.7
5/12/2023 3:00:00 PM 17.35 63.23 0.146 7.41 3.38 10.67
5/12/2023 3:15:00 PM 17.44 63.392 0.146 7.41 3.53 10.63
5/12/2023 3:30:00 PM 17.57 63.626 0.146 7.42 3.52 10.61
5/12/2023 3:45:00 PM 17.63 63.734 0.146 7.42 3.51 10.57
5/12/2023 4:00:00 PM 17.73 63.914 0.146 7.42 3.49 10.53
5/12/2023 4:15:00 PM 17.89 64.202 0.147 7.42 3.45 10.53
5/12/2023 4:30:00 PM 18.1 64.58 0.146 7.43 3.43 10.49
5/12/2023 4:45:00 PM 18.25 64.85 0.146 7.43 3.64 10.43
5/12/2023 5:00:00 PM 18.36 65.048 0.146 7.43 3.5 10.36
5/12/2023 5:15:00 PM 18.4 65.12 0.146 7.42 3.52 10.26
5/12/2023 5:30:00 PM 18.45 65.21 0.146 7.41 3.69 10.19
5/12/2023 5:45:00 PM 18.5 65.3 0.146 7.4 3.53 10.11
5/12/2023 6:00:00 PM 18.57 65.426 0.147 7.39 3.6 10.07
5/12/2023 6:15:00 PM 18.63 65.534 0.146 7.39 3.42 10.01
5/12/2023 6:30:00 PM 18.65 65.57 0.146 7.38 3.49 9.94
5/12/2023 6:45:00 PM 18.65 65.57 0.146 7.36 3.55 9.85
5/12/2023 7:00:00 PM 18.63 65.534 0.146 7.34 3.98 9.74
5/12/2023 7:15:00 PM 18.61 65.498 0.147 7.33 3.58 9.65
5/12/2023 7:30:00 PM 18.58 65.444 0.147 7.31 3.58 9.57
5/12/2023 7:45:00 PM 18.54 65.372 0.146 7.29 3.62 9.49
5/12/2023 8:00:00 PM 18.48 65.264 0.147 7.27 3.57 9.41
5/12/2023 8:15:00 PM 18.41 65.138 0.147 7.25 3.58 9.33
5/12/2023 8:30:00 PM 18.33 64.994 0.147 7.24 3.64 9.24
5/12/2023 8:45:00 PM 18.23 64.814 0.147 7.21 4.42 9.16
5/12/2023 9:00:00 PM 18.14 64.652 0.147 7.2 3.89 9.09
5/12/2023 9:15:00 PM 18.05 64.49 0.148 7.18 4.15 9.03
5/12/2023 9:30:00 PM 17.95 64.31 0.147 7.17 4.2 8.98
5/12/2023 9:45:00 PM 17.86 64.148 0.147 7.15 4.27 8.94
5/12/2023 10:00:00 PM 17.76 63.968 0.147 7.14 4.17 8.91
5/12/2023 10:15:00 PM 17.65 63.77 0.148 7.13 4.09 8.88
5/12/2023 10:30:00 PM 17.54 63.572 0.147 7.12 5.02 8.85
5/12/2023 10:45:00 PM 17.42 63.356 0.148 7.11 4.36 8.84
5/12/2023 11:00:00 PM 17.31 63.158 0.148 7.11 4.45 8.82
5/12/2023 11:15:00 PM 17.19 62.942 0.148 7.1 4.59 8.8
5/12/2023 11:30:00 PM 17.08 62.744 0.148 7.1 4.48 8.8
5/12/2023 11:45:00 PM 16.96 62.528 0.148 7.08 4.3 8.8
5/13/2023 12:00:00 AM 16.85 62.33 0.148 7.08 4.33 8.8
5/13/2023 12:15:00 AM 16.74 62.132 0.148 7.09 4.27 8.79
5/13/2023 12:30:00 AM 16.63 61.934 0.148 7.07 4.38 8.8
5/13/2023 12:45:00 AM 16.52 61.736 0.148 7.07 4.28 8.81
5/13/2023 1:00:00 AM 16.42 61.556 0.148 7.06 4.44 8.81
5/13/2023 1:15:00 AM 16.32 61.376 0.148 7.05 4.45 8.82
5/13/2023 1:30:00 AM 16.22 61.196 0.148 7.05 4.33 8.83
5/13/2023 1:45:00 AM 16.12 61.016 0.148 7.04 4.48 8.84
5/13/2023 2:00:00 AM 16.01 60.818 0.148 7.03 4.53 8.86
5/13/2023 2:15:00 AM 15.91 60.638 0.148 7.03 4.51 8.87
5/13/2023 2:30:00 AM 15.8 60.44 0.148 7.02 4.46 8.89
5/13/2023 2:45:00 AM 15.7 60.26 0.149 7.01 4.48 8.89
5/13/2023 3:00:00 AM 15.58 60.044 0.148 7.01 4.59 8.92
5/13/2023 3:15:00 AM 15.46 59.828 0.148 7.01 4.55 8.93
5/13/2023 3:30:00 AM 15.35 59.63 0.149 7.01 4.57 8.95
5/13/2023 3:45:00 AM 15.24 59.432 0.149 7.01 4.6 8.97
5/13/2023 4:00:00 AM 15.12 59.216 0.149 7.01 4.63 8.99
5/13/2023 4:15:00 AM 15.03 59.054 0.149 7.02 4.64 9
5/13/2023 4:30:00 AM 14.92 58.856 0.149 7.01 4.54 9.02
5/13/2023 4:45:00 AM 14.81 58.658 0.149 7 4.47 9.05
5/13/2023 5:00:00 AM 14.73 58.514 0.149 7.01 4.66 9.05
5/13/2023 5:15:00 AM 14.64 58.352 0.149 7 4.65 9.08
5/13/2023 5:30:00 AM 14.54 58.172 0.149 7 4.58 9.1
5/13/2023 5:45:00 AM 14.46 58.028 0.149 7.01 5.08 9.12
5/13/2023 6:00:00 AM 14.37 57.866 0.149 7.01 4.15 9.15
5/13/2023 6:15:00 AM 14.29 57.722 0.15 7.01 4.47 9.17
5/13/2023 6:30:00 AM 14.22 57.596 0.15 7.01 7.73 9.23
5/13/2023 6:45:00 AM 14.14 57.452 0.15 7.02 3.83 9.29
5/13/2023 7:00:00 AM 14.09 57.362 0.15 7.03 4.4 9.37
5/13/2023 7:15:00 AM 14.05 57.29 0.15 7.04 7.45 9.46
5/13/2023 7:30:00 AM 14.01 57.218 0.15 7.06 4.08 9.57
5/13/2023 7:45:00 AM 14 57.2 0.15 7.07 3.76 9.66
5/13/2023 8:00:00 AM 14 57.2 0.15 7.09 3.66 9.74
5/13/2023 8:15:00 AM 14.03 57.254 0.15 7.11 3.65 9.84
5/13/2023 8:30:00 AM 14.07 57.326 0.15 7.12 11.26 9.93
5/13/2023 8:45:00 AM 14.11 57.398 0.15 7.14 4.66 10.02
5/13/2023 9:00:00 AM 14.17 57.506 0.15 7.16 5.72 10.11
5/13/2023 9:15:00 AM 14.26 57.668 0.15 7.18 3.83 10.2
5/13/2023 9:30:00 AM 14.32 57.776 0.15 7.19 4.24 10.26
5/13/2023 9:45:00 AM 14.41 57.938 0.15 7.22 4.57 10.34
5/13/2023 10:00:00 AM 14.51 58.118 0.15 7.23 4.22 10.4
5/13/2023 10:15:00 AM 14.61 58.298 0.15 7.25 6.96 10.47
5/13/2023 10:30:00 AM 14.71 58.478 0.15 7.26 4.52 10.53
5/13/2023 10:45:00 AM 14.82 58.676 0.15 7.29 6.92 10.58
5/13/2023 11:00:00 AM 14.96 58.928 0.15 7.29 4.59 10.63
5/13/2023 11:15:00 AM 15.1 59.18 0.15 7.32 3.65 10.67
5/13/2023 11:30:00 AM 15.23 59.414 0.15 7.34 3.57 10.72
5/13/2023 11:45:00 AM 15.34 59.612 0.15 7.35 4.31 10.75
5/13/2023 12:00:00 PM 15.45 59.81 0.15 7.36 6.12 10.78
5/13/2023 12:15:00 PM 15.57 60.026 0.15 7.37 3.51 10.81
5/13/2023 12:30:00 PM 15.73 60.314 0.15 7.38 3.55 10.84
5/13/2023 12:45:00 PM 15.87 60.566 0.15 7.39 3.27 10.87
5/13/2023 1:00:00 PM 16.07 60.926 0.15 7.41 5.12 10.89
5/13/2023 1:15:00 PM 16.28 61.304 0.15 7.42 6.32 10.91
5/13/2023 1:30:00 PM 16.48 61.664 0.15 7.43 5.12 10.92
5/13/2023 1:45:00 PM 16.67 62.006 0.15 7.45 4.32 10.93
5/13/2023 2:00:00 PM 16.86 62.348 0.15 7.47 6.86 10.92
5/13/2023 2:15:00 PM 17.05 62.69 0.15 7.48 3.23 10.92
5/13/2023 2:30:00 PM 17.3 63.14 0.15 7.48 3.42 10.91
5/13/2023 2:45:00 PM 17.53 63.554 0.15 7.5 3.57 10.9
5/13/2023 3:00:00 PM 17.75 63.95 0.15 7.51 3.58 10.88
5/13/2023 3:15:00 PM 17.92 64.256 0.15 7.51 3.38 10.86
5/13/2023 3:30:00 PM 18.06 64.508 0.151 7.52 3.38 10.84
5/13/2023 3:45:00 PM 18.2 64.76 0.15 7.53 3.34 10.79
5/13/2023 4:00:00 PM 18.33 64.994 0.15 7.53 3.13 10.75
5/13/2023 4:15:00 PM 18.43 65.174 0.15 7.53 3.31 10.7
5/13/2023 4:30:00 PM 18.52 65.336 0.151 7.54 3.38 10.66
5/13/2023 4:45:00 PM 18.6 65.48 0.151 7.53 3.3 10.58
5/13/2023 5:00:00 PM 18.64 65.552 0.151 7.52 3.43 10.52
5/13/2023 5:15:00 PM 18.66 65.588 0.151 7.52 3.48 10.43
5/13/2023 5:30:00 PM 18.65 65.57 0.151 7.51 3.31 10.35
5/13/2023 5:45:00 PM 18.62 65.516 0.151 7.48 3.23 10.27
5/13/2023 6:00:00 PM 18.6 65.48 0.151 7.47 3.19 10.19
5/13/2023 6:15:00 PM 18.57 65.426 0.151 7.46 3.62 10.13
5/13/2023 6:30:00 PM 18.54 65.372 0.152 7.44 3.4 10.05
5/13/2023 6:45:00 PM 18.48 65.264 0.152 7.43 3.28 9.98
5/13/2023 7:00:00 PM 18.43 65.174 0.152 7.41 3.33 9.91
5/13/2023 7:15:00 PM 18.38 65.084 0.152 7.4 3.26 9.83
5/13/2023 7:30:00 PM 18.31 64.958 0.152 7.38 3.25 9.76
5/13/2023 7:45:00 PM 18.26 64.868 0.152 7.37 3.2 9.69
5/13/2023 8:00:00 PM 18.19 64.742 0.152 7.35 3.27 9.6
5/13/2023 8:15:00 PM 18.11 64.598 0.152 7.33 3.17 9.51
5/13/2023 8:30:00 PM 18.02 64.436 0.152 7.31 3.34 9.41
5/13/2023 8:45:00 PM 17.91 64.238 0.152 7.28 3.43 9.31
5/13/2023 9:00:00 PM 17.8 64.04 0.152 7.25 4.06 9.22
5/13/2023 9:15:00 PM 17.69 63.842 0.152 7.24 3.59 9.15
5/13/2023 9:30:00 PM 17.57 63.626 0.153 7.22 3.62 9.08
5/13/2023 9:45:00 PM 17.46 63.428 0.152 7.21 3.68 9.03
5/13/2023 10:00:00 PM 17.35 63.23 0.153 7.2 3.76 8.99
5/13/2023 10:15:00 PM 17.23 63.014 0.153 7.19 3.84 8.95
5/13/2023 10:30:00 PM 17.1 62.78 0.153 7.17 3.71 8.93
5/13/2023 10:45:00 PM 16.98 62.564 0.153 7.16 3.71 8.9
5/13/2023 11:00:00 PM 16.86 62.348 0.153 7.15 3.82 8.88
5/13/2023 11:15:00 PM 16.72 62.096 0.153 7.15 3.8 8.87
5/13/2023 11:30:00 PM 16.59 61.862 0.153 7.14 4.16 8.85
5/13/2023 11:45:00 PM 16.46 61.628 0.154 7.12 4.07 8.85
5/14/2023 12:00:00 AM 16.33 61.394 0.154 7.12 4.1 8.84
5/14/2023 12:15:00 AM 16.18 61.124 0.154 7.09 4.02 8.85
5/14/2023 12:30:00 AM 16.05 60.89 0.154 7.09 4.07 8.85
5/14/2023 12:45:00 AM 15.9 60.62 0.154 7.08 3.98 8.87
5/14/2023 1:00:00 AM 15.77 60.386 0.154 7.08 3.9 8.87
5/14/2023 1:15:00 AM 15.62 60.116 0.154 7.07 3.93 8.9
5/14/2023 1:30:00 AM 15.47 59.846 0.154 7.07 4 8.91
5/14/2023 1:45:00 AM 15.35 59.63 0.155 7.06 4.1 8.92
5/14/2023 2:00:00 AM 15.21 59.378 0.155 7.06 4.15 8.93
5/14/2023 2:15:00 AM 15.07 59.126 0.155 7.05 4.02 8.95
5/14/2023 2:30:00 AM 14.93 58.874 0.155 7.05 4.1 8.98
5/14/2023 2:45:00 AM 14.79 58.622 0.155 7.05 4.08 9
5/14/2023 3:00:00 AM 14.66 58.388 0.155 7.05 4.23 9.02
5/14/2023 3:15:00 AM 14.53 58.154 0.155 7.05 4.25 9.04
5/14/2023 3:30:00 AM 14.38 57.884 0.155 7.05 4.47 9.08
5/14/2023 3:45:00 AM 14.25 57.65 0.155 7.05 4.46 9.11
5/14/2023 4:00:00 AM 14.12 57.416 0.155 7.05 4.51 9.14
5/14/2023 4:15:00 AM 13.98 57.164 0.155 7.05 4.4 9.18
5/14/2023 4:30:00 AM 13.84 56.912 0.154 7.05 4.41 9.21
5/14/2023 4:45:00 AM 13.72 56.696 0.155 7.05 4.36 9.24
5/14/2023 5:00:00 AM 13.58 56.444 0.155 7.05 4.33 9.28
5/14/2023 5:15:00 AM 13.46 56.228 0.155 7.05 4.49 9.3
5/14/2023 5:30:00 AM 13.33 55.994 0.156 7.06 4.48 9.33
5/14/2023 5:45:00 AM 13.21 55.778 0.156 7.05 4.62 9.35
5/14/2023 6:00:00 AM 13.08 55.544 0.157 7.06 4.57 9.4
5/14/2023 6:15:00 AM 12.95 55.31 0.157 7.06 5.01 9.46
5/14/2023 6:30:00 AM 12.83 55.094 0.158 7.07 4.09 9.54
5/14/2023 6:45:00 AM 12.75 54.95 0.158 7.08 4.09 9.62
5/14/2023 7:00:00 AM 12.65 54.77 0.158 7.09 4.35 9.73
5/14/2023 7:15:00 AM 12.58 54.644 0.159 7.1 4.6 9.81
5/14/2023 7:30:00 AM 12.52 54.536 0.159 7.11 4.68 9.93
5/14/2023 7:45:00 AM 12.49 54.482 0.159 7.13 4.71 10.03
5/14/2023 8:00:00 AM 12.47 54.446 0.159 7.15 4.37 10.14
5/14/2023 8:15:00 AM 12.46 54.428 0.159 7.17 4.56 10.23
5/14/2023 8:30:00 AM 12.48 54.464 0.159 7.19 4.33 10.32
5/14/2023 8:45:00 AM 12.5 54.5 0.159 7.2 4.14 10.41
5/14/2023 9:00:00 AM 12.53 54.554 0.16 7.22 4.16 10.48
5/14/2023 9:15:00 AM 12.6 54.68 0.159 7.23 4.1 10.56
5/14/2023 9:30:00 AM 12.67 54.806 0.16 7.25 4.01 10.63
5/14/2023 9:45:00 AM 12.78 55.004 0.16 7.26 3.97 10.69
5/14/2023 10:00:00 AM 12.91 55.238 0.16 7.28 3.93 10.74
5/14/2023 10:15:00 AM 13.06 55.508 0.16 7.29 3.85 10.81
5/14/2023 10:30:00 AM 13.22 55.796 0.16 7.3 3.7 10.86
5/14/2023 10:45:00 AM 13.42 56.156 0.16 7.32 3.71 10.92
5/14/2023 11:00:00 AM 13.59 56.462 0.16 7.34 3.77 10.95
5/14/2023 11:15:00 AM 13.78 56.804 0.16 7.34 3.77 10.99
5/14/2023 11:30:00 AM 14.02 57.236 0.16 7.36 3.67 11.03
5/14/2023 11:45:00 AM 14.23 57.614 0.16 7.37 3.7 11.05
5/14/2023 12:00:00 PM 14.46 58.028 0.16 7.39 3.66 11.08
5/14/2023 12:15:00 PM 14.7 58.46 0.159 7.41 3.56 11.1
5/14/2023 12:30:00 PM 14.93 58.874 0.159 7.42 3.6 11.13
5/14/2023 12:45:00 PM 15.15 59.27 0.159 7.44 3.63 11.14
5/14/2023 1:00:00 PM 15.39 59.702 0.159 7.45 3.62 11.15
5/14/2023 1:15:00 PM 15.64 60.152 0.159 7.47 3.67 11.16
5/14/2023 1:30:00 PM 15.87 60.566 0.159 7.48 3.43 11.17
5/14/2023 1:45:00 PM 16.1 60.98 0.159 7.5 3.46 11.18
5/14/2023 2:00:00 PM 16.33 61.394 0.159 7.51 3.38 11.17
5/14/2023 2:15:00 PM 16.54 61.772 0.159 7.51 3.43 11.16
5/14/2023 2:30:00 PM 16.75 62.15 0.159 7.53 3.37 11.15
5/14/2023 2:45:00 PM 16.91 62.438 0.158 7.55 3.3 11.14
5/14/2023 3:00:00 PM 17.06 62.708 0.158 7.55 3.4 11.12
5/14/2023 3:15:00 PM 17.17 62.906 0.158 7.56 3.24 11.1
5/14/2023 3:30:00 PM 17.25 63.05 0.158 7.58 3.27 11.09
5/14/2023 3:45:00 PM 17.32 63.176 0.157 7.59 3.29 11.07
5/14/2023 4:00:00 PM 17.39 63.302 0.158 7.58 3.4 11.05
5/14/2023 4:15:00 PM 17.44 63.392 0.158 7.6 3.33 11.03
5/14/2023 4:30:00 PM 17.47 63.446 0.157 7.61 3.21 11
5/14/2023 4:45:00 PM 17.47 63.446 0.158 7.61 3.34 10.96
5/14/2023 5:00:00 PM 17.46 63.428 0.158 7.61 3.45 10.93
5/14/2023 5:15:00 PM 17.46 63.428 0.158 7.6 3.31 10.88
5/14/2023 5:30:00 PM 17.46 63.428 0.157 7.6 3.37 10.81
5/14/2023 5:45:00 PM 17.44 63.392 0.157 7.59 3.31 10.75
5/14/2023 6:00:00 PM 17.42 63.356 0.157 7.58 3.25 10.68
5/14/2023 6:15:00 PM 17.41 63.338 0.157 7.57 3.26 10.64
5/14/2023 6:30:00 PM 17.39 63.302 0.158 7.56 3.29 10.59
5/14/2023 6:45:00 PM 17.36 63.248 0.158 7.55 3.38 10.54
5/14/2023 7:00:00 PM 17.32 63.176 0.157 7.54 3.31 10.45
5/14/2023 7:15:00 PM 17.26 63.068 0.158 7.52 3.24 10.36
5/14/2023 7:30:00 PM 17.18 62.924 0.158 7.48 3.33 10.26
5/14/2023 7:45:00 PM 17.11 62.798 0.158 7.46 3.26 10.15
5/14/2023 8:00:00 PM 17.04 62.672 0.158 7.43 3.49 10.03
5/14/2023 8:15:00 PM 16.96 62.528 0.157 7.41 3.32 9.9
5/14/2023 8:30:00 PM 16.86 62.348 0.158 7.38 3.51 9.8
5/14/2023 8:45:00 PM 16.76 62.168 0.158 7.36 3.53 9.68
5/14/2023 9:00:00 PM 16.65 61.97 0.158 7.33 3.56 9.59
5/14/2023 9:15:00 PM 16.54 61.772 0.158 7.31 4.01 9.49
5/14/2023 9:30:00 PM 16.43 61.574 0.158 7.28 3.98 9.42
5/14/2023 9:45:00 PM 16.32 61.376 0.158 7.28 3.9 9.37
5/14/2023 10:00:00 PM 16.21 61.178 0.158 7.26 3.95 9.31
5/14/2023 10:15:00 PM 16.08 60.944 0.158 7.25 4.21 9.27
5/14/2023 10:30:00 PM 15.96 60.728 0.158 7.23 4.58 9.23
5/14/2023 10:45:00 PM 15.83 60.494 0.158 7.22 4.3 9.2
5/14/2023 11:00:00 PM 15.71 60.278 0.158 7.21 4.24 9.19
5/14/2023 11:15:00 PM 15.57 60.026 0.158 7.19 4.14 9.18
5/14/2023 11:30:00 PM 15.43 59.774 0.158 7.17 4.07 9.16
5/14/2023 11:45:00 PM 15.29 59.522 0.158 7.16 4.16 9.16
5/15/2023 12:00:00 AM 15.14 59.252 0.158 7.16 4.21 9.15
5/15/2023 12:15:00 AM 15 59 0.158 7.14 4.12 9.16
5/15/2023 12:30:00 AM 14.86 58.748 0.158 7.14 4.26 9.15
5/15/2023 12:45:00 AM 14.71 58.478 0.159 7.13 4.39 9.17
5/15/2023 1:00:00 AM 14.56 58.208 0.159 7.12 4.18 9.17
5/15/2023 1:15:00 AM 14.41 57.938 0.158 7.12 4.31 9.19
5/15/2023 1:30:00 AM 14.25 57.65 0.158 7.11 4.22 9.2
5/15/2023 1:45:00 AM 14.11 57.398 0.158 7.11 4.25 9.23
5/15/2023 2:00:00 AM 13.97 57.146 0.159 7.1 4.16 9.23
5/15/2023 2:15:00 AM 13.81 56.858 0.159 7.1 4.33 9.26
5/15/2023 2:30:00 AM 13.66 56.588 0.159 7.1 4.58 9.28
5/15/2023 2:45:00 AM 13.52 56.336 0.158 7.1 4.57 9.3
5/15/2023 3:00:00 AM 13.36 56.048 0.159 7.09 4.5 9.34
5/15/2023 3:15:00 AM 13.24 55.832 0.159 7.09 4.54 9.35
5/15/2023 3:30:00 AM 13.08 55.544 0.159 7.09 4.82 9.37
5/15/2023 3:45:00 AM 12.93 55.274 0.159 7.09 4.44 9.41
5/15/2023 4:00:00 AM 12.8 55.04 0.159 7.09 4.69 9.42

These are provisional data and have not been subject to a quality assurance process, but rather are the raw data reported by the instrument.
H: value is above sensor operating range
L: value is below sensor operating range
Offline: station is not reporting data
NC: parameter is not collected at site

Data Availability & Limitations

Uncertainty and potential for error can be associated with environmental monitoring data. Provisional data have not been subject to a quality assurance process, but rather are the raw data reported by the instrument. Data users are cautioned to consider carefully the provisional nature of the information before using it for decisions that concern personal or public safety or the conduct of business that involves substantial monetary or operational consequences.

Approved data are currently available by request by emailing: cim@srbc.gov. Approved data have been subject to a quality assurance process to correct for equipment or fouling drift. Data recorded during equipment malfunctions have been removed.

View Historical Stations that have been discontinued.